<?xml version="1.0" encoding="UTF-8" standalone="no" ?>
<gpx xmlns="http://www.topografix.com/GPX/1/1" xmlns:xsi="http://www.w3.org/2001/XMLSchema-instance" xsi:schemaLocation="http://www.topografix.com/GPX/1/1 http://www.topografix.com/GPX/1/1/gpx.xsd" version="1.1" creator="VisuGPX - https://www.visugpx.com">
  <metadata>
    <name> la Rhune lissée</name>
    <desc><![CDATA[
]]></desc>
  </metadata>
  <trk>
    <name><![CDATA[11184953-la Rhune]]></name>
    <trkseg>
      <trkpt lat="43.38299" lon="-1.6508">
        <ele>11</ele>
        <time>2020-04-07T12:38:50Z</time>
      </trkpt>
      <trkpt lat="43.3826" lon="-1.64971">
        <ele>8</ele>
        <time>2020-04-07T12:39:06Z</time>
      </trkpt>
      <trkpt lat="43.38256" lon="-1.64957">
        <ele>8</ele>
        <time>2020-04-07T12:39:08Z</time>
      </trkpt>
      <trkpt lat="43.38252" lon="-1.64928">
        <ele>8</ele>
        <time>2020-04-07T12:39:11Z</time>
      </trkpt>
      <trkpt lat="43.38255" lon="-1.6488">
        <ele>9</ele>
        <time>2020-04-07T12:39:18Z</time>
      </trkpt>
      <trkpt lat="43.38277" lon="-1.64656">
        <ele>7</ele>
        <time>2020-04-07T12:39:47Z</time>
      </trkpt>
      <trkpt lat="43.3828" lon="-1.64595">
        <ele>8</ele>
        <time>2020-04-07T12:39:55Z</time>
      </trkpt>
      <trkpt lat="43.38277" lon="-1.64488">
        <ele>10</ele>
        <time>2020-04-07T12:40:09Z</time>
      </trkpt>
      <trkpt lat="43.38272" lon="-1.64424">
        <ele>8</ele>
        <time>2020-04-07T12:40:17Z</time>
      </trkpt>
      <trkpt lat="43.38264" lon="-1.64383">
        <ele>7</ele>
        <time>2020-04-07T12:40:23Z</time>
      </trkpt>
      <trkpt lat="43.3825" lon="-1.64341">
        <ele>5</ele>
        <time>2020-04-07T12:40:28Z</time>
      </trkpt>
      <trkpt lat="43.38232" lon="-1.64309">
        <ele>5</ele>
        <time>2020-04-07T12:40:34Z</time>
      </trkpt>
      <trkpt lat="43.38212" lon="-1.64283">
        <ele>5</ele>
        <time>2020-04-07T12:40:39Z</time>
      </trkpt>
      <trkpt lat="43.38155" lon="-1.6423">
        <ele>6</ele>
        <time>2020-04-07T12:40:51Z</time>
      </trkpt>
      <trkpt lat="43.3812" lon="-1.64193">
        <ele>6</ele>
        <time>2020-04-07T12:40:59Z</time>
      </trkpt>
      <trkpt lat="43.38056" lon="-1.64058">
        <ele>9</ele>
        <time>2020-04-07T12:41:20Z</time>
      </trkpt>
      <trkpt lat="43.37906" lon="-1.63917">
        <ele>6</ele>
        <time>2020-04-07T12:41:52Z</time>
      </trkpt>
      <trkpt lat="43.37776" lon="-1.63786">
        <ele>8</ele>
        <time>2020-04-07T12:42:21Z</time>
      </trkpt>
      <trkpt lat="43.37759" lon="-1.63774">
        <ele>8</ele>
        <time>2020-04-07T12:42:24Z</time>
      </trkpt>
      <trkpt lat="43.37738" lon="-1.63772">
        <ele>8</ele>
        <time>2020-04-07T12:42:28Z</time>
      </trkpt>
      <trkpt lat="43.37642" lon="-1.63776">
        <ele>6</ele>
        <time>2020-04-07T12:42:45Z</time>
      </trkpt>
      <trkpt lat="43.37604" lon="-1.63785">
        <ele>6</ele>
        <time>2020-04-07T12:42:52Z</time>
      </trkpt>
      <trkpt lat="43.37541" lon="-1.63786">
        <ele>5</ele>
        <time>2020-04-07T12:43:03Z</time>
      </trkpt>
      <trkpt lat="43.37526" lon="-1.63781">
        <ele>5</ele>
        <time>2020-04-07T12:43:06Z</time>
      </trkpt>
      <trkpt lat="43.37517" lon="-1.6379">
        <ele>4</ele>
        <time>2020-04-07T12:43:08Z</time>
      </trkpt>
      <trkpt lat="43.3751" lon="-1.63791">
        <ele>4</ele>
        <time>2020-04-07T12:43:09Z</time>
      </trkpt>
      <trkpt lat="43.37445" lon="-1.63794">
        <ele>4</ele>
        <time>2020-04-07T12:43:20Z</time>
      </trkpt>
      <trkpt lat="43.37409" lon="-1.63788">
        <ele>4</ele>
        <time>2020-04-07T12:43:27Z</time>
      </trkpt>
      <trkpt lat="43.37111" lon="-1.63806">
        <ele>5</ele>
        <time>2020-04-07T12:44:20Z</time>
      </trkpt>
      <trkpt lat="43.37085" lon="-1.63801">
        <ele>6</ele>
        <time>2020-04-07T12:44:25Z</time>
      </trkpt>
      <trkpt lat="43.37063" lon="-1.63793">
        <ele>6</ele>
        <time>2020-04-07T12:44:29Z</time>
      </trkpt>
      <trkpt lat="43.36753" lon="-1.63597">
        <ele>7</ele>
        <time>2020-04-07T12:45:29Z</time>
      </trkpt>
      <trkpt lat="43.36722" lon="-1.63585">
        <ele>7</ele>
        <time>2020-04-07T12:45:35Z</time>
      </trkpt>
      <trkpt lat="43.36693" lon="-1.63579">
        <ele>8</ele>
        <time>2020-04-07T12:45:40Z</time>
      </trkpt>
      <trkpt lat="43.36675" lon="-1.63576">
        <ele>8</ele>
        <time>2020-04-07T12:45:44Z</time>
      </trkpt>
      <trkpt lat="43.36644" lon="-1.63577">
        <ele>7</ele>
        <time>2020-04-07T12:45:49Z</time>
      </trkpt>
      <trkpt lat="43.36626" lon="-1.6358">
        <ele>7</ele>
        <time>2020-04-07T12:45:52Z</time>
      </trkpt>
      <trkpt lat="43.36367" lon="-1.63664">
        <ele>7</ele>
        <time>2020-04-07T12:46:40Z</time>
      </trkpt>
      <trkpt lat="43.36349" lon="-1.63669">
        <ele>7</ele>
        <time>2020-04-07T12:46:43Z</time>
      </trkpt>
      <trkpt lat="43.36308" lon="-1.63673">
        <ele>7</ele>
        <time>2020-04-07T12:46:50Z</time>
      </trkpt>
      <trkpt lat="43.3629" lon="-1.63673">
        <ele>6</ele>
        <time>2020-04-07T12:46:53Z</time>
      </trkpt>
      <trkpt lat="43.36255" lon="-1.63666">
        <ele>6</ele>
        <time>2020-04-07T12:47:00Z</time>
      </trkpt>
      <trkpt lat="43.36097" lon="-1.63603">
        <ele>5</ele>
        <time>2020-04-07T12:47:29Z</time>
      </trkpt>
      <trkpt lat="43.36075" lon="-1.63589">
        <ele>5</ele>
        <time>2020-04-07T12:47:33Z</time>
      </trkpt>
      <trkpt lat="43.36061" lon="-1.63577">
        <ele>5</ele>
        <time>2020-04-07T12:47:36Z</time>
      </trkpt>
      <trkpt lat="43.36039" lon="-1.63549">
        <ele>6</ele>
        <time>2020-04-07T12:47:42Z</time>
      </trkpt>
      <trkpt lat="43.36029" lon="-1.63531">
        <ele>6</ele>
        <time>2020-04-07T12:47:44Z</time>
      </trkpt>
      <trkpt lat="43.36014" lon="-1.63501">
        <ele>6</ele>
        <time>2020-04-07T12:47:49Z</time>
      </trkpt>
      <trkpt lat="43.35995" lon="-1.63453">
        <ele>8</ele>
        <time>2020-04-07T12:47:56Z</time>
      </trkpt>
      <trkpt lat="43.35984" lon="-1.63434">
        <ele>8</ele>
        <time>2020-04-07T12:47:59Z</time>
      </trkpt>
      <trkpt lat="43.35935" lon="-1.63358">
        <ele>9</ele>
        <time>2020-04-07T12:48:13Z</time>
      </trkpt>
      <trkpt lat="43.35921" lon="-1.63341">
        <ele>8</ele>
        <time>2020-04-07T12:48:16Z</time>
      </trkpt>
      <trkpt lat="43.35859" lon="-1.6328">
        <ele>9</ele>
        <time>2020-04-07T12:48:29Z</time>
      </trkpt>
      <trkpt lat="43.35789" lon="-1.63219">
        <ele>9</ele>
        <time>2020-04-07T12:48:44Z</time>
      </trkpt>
      <trkpt lat="43.3575" lon="-1.63192">
        <ele>7</ele>
        <time>2020-04-07T12:48:52Z</time>
      </trkpt>
      <trkpt lat="43.35679" lon="-1.63165">
        <ele>6</ele>
        <time>2020-04-07T12:49:05Z</time>
      </trkpt>
      <trkpt lat="43.35667" lon="-1.63163">
        <ele>6</ele>
        <time>2020-04-07T12:49:07Z</time>
      </trkpt>
      <trkpt lat="43.35663" lon="-1.63166">
        <ele>6</ele>
        <time>2020-04-07T12:49:08Z</time>
      </trkpt>
      <trkpt lat="43.35657" lon="-1.63166">
        <ele>6</ele>
        <time>2020-04-07T12:49:09Z</time>
      </trkpt>
      <trkpt lat="43.35638" lon="-1.63154">
        <ele>6</ele>
        <time>2020-04-07T12:49:13Z</time>
      </trkpt>
      <trkpt lat="43.3544" lon="-1.63096">
        <ele>6</ele>
        <time>2020-04-07T12:49:49Z</time>
      </trkpt>
      <trkpt lat="43.35403" lon="-1.63082">
        <ele>7</ele>
        <time>2020-04-07T12:49:56Z</time>
      </trkpt>
      <trkpt lat="43.35365" lon="-1.63059">
        <ele>7</ele>
        <time>2020-04-07T12:50:03Z</time>
      </trkpt>
      <trkpt lat="43.35332" lon="-1.63028">
        <ele>7</ele>
        <time>2020-04-07T12:50:10Z</time>
      </trkpt>
      <trkpt lat="43.35306" lon="-1.62998">
        <ele>6</ele>
        <time>2020-04-07T12:50:16Z</time>
      </trkpt>
      <trkpt lat="43.35289" lon="-1.62974">
        <ele>6</ele>
        <time>2020-04-07T12:50:21Z</time>
      </trkpt>
      <trkpt lat="43.3528" lon="-1.62956">
        <ele>6</ele>
        <time>2020-04-07T12:50:23Z</time>
      </trkpt>
      <trkpt lat="43.35258" lon="-1.62906">
        <ele>6</ele>
        <time>2020-04-07T12:50:31Z</time>
      </trkpt>
      <trkpt lat="43.35207" lon="-1.62759">
        <ele>8</ele>
        <time>2020-04-07T12:50:52Z</time>
      </trkpt>
      <trkpt lat="43.35118" lon="-1.62528">
        <ele>12</ele>
        <time>2020-04-07T12:51:26Z</time>
      </trkpt>
      <trkpt lat="43.35101" lon="-1.62531">
        <ele>9</ele>
        <time>2020-04-07T12:51:29Z</time>
      </trkpt>
      <trkpt lat="43.35063" lon="-1.62537">
        <ele>6</ele>
        <time>2020-04-07T12:51:36Z</time>
      </trkpt>
      <trkpt lat="43.35033" lon="-1.62537">
        <ele>6</ele>
        <time>2020-04-07T12:51:41Z</time>
      </trkpt>
      <trkpt lat="43.35011" lon="-1.62534">
        <ele>6</ele>
        <time>2020-04-07T12:51:45Z</time>
      </trkpt>
      <trkpt lat="43.34988" lon="-1.6253">
        <ele>6</ele>
        <time>2020-04-07T12:51:49Z</time>
      </trkpt>
      <trkpt lat="43.34949" lon="-1.62522">
        <ele>7</ele>
        <time>2020-04-07T12:51:56Z</time>
      </trkpt>
      <trkpt lat="43.34909" lon="-1.62517">
        <ele>7</ele>
        <time>2020-04-07T12:52:03Z</time>
      </trkpt>
      <trkpt lat="43.34897" lon="-1.62493">
        <ele>7</ele>
        <time>2020-04-07T12:52:07Z</time>
      </trkpt>
      <trkpt lat="43.34885" lon="-1.62463">
        <ele>7</ele>
        <time>2020-04-07T12:52:11Z</time>
      </trkpt>
      <trkpt lat="43.34884" lon="-1.62461">
        <ele>7</ele>
        <time>2020-04-07T12:52:12Z</time>
      </trkpt>
      <trkpt lat="43.34874" lon="-1.62439">
        <ele>7</ele>
        <time>2020-04-07T12:52:15Z</time>
      </trkpt>
      <trkpt lat="43.3486" lon="-1.62416">
        <ele>7</ele>
        <time>2020-04-07T12:52:19Z</time>
      </trkpt>
      <trkpt lat="43.34814" lon="-1.62357">
        <ele>8</ele>
        <time>2020-04-07T12:52:30Z</time>
      </trkpt>
      <trkpt lat="43.3481" lon="-1.62344">
        <ele>9</ele>
        <time>2020-04-07T12:52:32Z</time>
      </trkpt>
      <trkpt lat="43.34795" lon="-1.62322">
        <ele>9</ele>
        <time>2020-04-07T12:52:36Z</time>
      </trkpt>
      <trkpt lat="43.34695" lon="-1.62241">
        <ele>12</ele>
        <time>2020-04-07T12:52:57Z</time>
      </trkpt>
      <trkpt lat="43.34658" lon="-1.62211">
        <ele>13</ele>
        <time>2020-04-07T12:53:04Z</time>
      </trkpt>
      <trkpt lat="43.34655" lon="-1.62209">
        <ele>13</ele>
        <time>2020-04-07T12:53:05Z</time>
      </trkpt>
      <trkpt lat="43.34644" lon="-1.62201">
        <ele>13</ele>
        <time>2020-04-07T12:53:07Z</time>
      </trkpt>
      <trkpt lat="43.34635" lon="-1.62193">
        <ele>14</ele>
        <time>2020-04-07T12:53:09Z</time>
      </trkpt>
      <trkpt lat="43.34628" lon="-1.62186">
        <ele>14</ele>
        <time>2020-04-07T12:53:10Z</time>
      </trkpt>
      <trkpt lat="43.34557" lon="-1.62131">
        <ele>20</ele>
        <time>2020-04-07T12:53:25Z</time>
      </trkpt>
      <trkpt lat="43.34535" lon="-1.62116">
        <ele>22</ele>
        <time>2020-04-07T12:53:29Z</time>
      </trkpt>
      <trkpt lat="43.3453" lon="-1.62112">
        <ele>23</ele>
        <time>2020-04-07T12:53:30Z</time>
      </trkpt>
      <trkpt lat="43.34505" lon="-1.62097">
        <ele>24</ele>
        <time>2020-04-07T12:53:35Z</time>
      </trkpt>
      <trkpt lat="43.3449" lon="-1.62091">
        <ele>25</ele>
        <time>2020-04-07T12:53:38Z</time>
      </trkpt>
      <trkpt lat="43.34471" lon="-1.62092">
        <ele>24</ele>
        <time>2020-04-07T12:53:41Z</time>
      </trkpt>
      <trkpt lat="43.34463" lon="-1.62074">
        <ele>24</ele>
        <time>2020-04-07T12:53:44Z</time>
      </trkpt>
      <trkpt lat="43.34456" lon="-1.62059">
        <ele>24</ele>
        <time>2020-04-07T12:53:46Z</time>
      </trkpt>
      <trkpt lat="43.34406" lon="-1.61984">
        <ele>25</ele>
        <time>2020-04-07T12:54:00Z</time>
      </trkpt>
      <trkpt lat="43.34394" lon="-1.61963">
        <ele>26</ele>
        <time>2020-04-07T12:54:03Z</time>
      </trkpt>
      <trkpt lat="43.34386" lon="-1.6194">
        <ele>26</ele>
        <time>2020-04-07T12:54:06Z</time>
      </trkpt>
      <trkpt lat="43.34384" lon="-1.61931">
        <ele>26</ele>
        <time>2020-04-07T12:54:08Z</time>
      </trkpt>
      <trkpt lat="43.34381" lon="-1.61901">
        <ele>25</ele>
        <time>2020-04-07T12:54:11Z</time>
      </trkpt>
      <trkpt lat="43.3438" lon="-1.61734">
        <ele>24</ele>
        <time>2020-04-07T12:54:33Z</time>
      </trkpt>
      <trkpt lat="43.34379" lon="-1.61719">
        <ele>24</ele>
        <time>2020-04-07T12:54:35Z</time>
      </trkpt>
      <trkpt lat="43.34378" lon="-1.61699">
        <ele>25</ele>
        <time>2020-04-07T12:54:38Z</time>
      </trkpt>
      <trkpt lat="43.34377" lon="-1.61689">
        <ele>26</ele>
        <time>2020-04-07T12:54:39Z</time>
      </trkpt>
      <trkpt lat="43.34364" lon="-1.61649">
        <ele>29</ele>
        <time>2020-04-07T12:54:45Z</time>
      </trkpt>
      <trkpt lat="43.34356" lon="-1.61637">
        <ele>30</ele>
        <time>2020-04-07T12:54:47Z</time>
      </trkpt>
      <trkpt lat="43.34345" lon="-1.61629">
        <ele>32</ele>
        <time>2020-04-07T12:54:49Z</time>
      </trkpt>
      <trkpt lat="43.34319" lon="-1.61627">
        <ele>34</ele>
        <time>2020-04-07T12:54:54Z</time>
      </trkpt>
      <trkpt lat="43.34233" lon="-1.61618">
        <ele>42</ele>
        <time>2020-04-07T12:55:09Z</time>
      </trkpt>
      <trkpt lat="43.34166" lon="-1.61611">
        <ele>43</ele>
        <time>2020-04-07T12:55:21Z</time>
      </trkpt>
      <trkpt lat="43.34147" lon="-1.61609">
        <ele>45</ele>
        <time>2020-04-07T12:55:24Z</time>
      </trkpt>
      <trkpt lat="43.34092" lon="-1.61623">
        <ele>46</ele>
        <time>2020-04-07T12:55:34Z</time>
      </trkpt>
      <trkpt lat="43.34077" lon="-1.61621">
        <ele>46</ele>
        <time>2020-04-07T12:55:37Z</time>
      </trkpt>
      <trkpt lat="43.34063" lon="-1.61612">
        <ele>48</ele>
        <time>2020-04-07T12:55:40Z</time>
      </trkpt>
      <trkpt lat="43.3406" lon="-1.61609">
        <ele>48</ele>
        <time>2020-04-07T12:55:40Z</time>
      </trkpt>
      <trkpt lat="43.34025" lon="-1.61572">
        <ele>55</ele>
        <time>2020-04-07T12:55:48Z</time>
      </trkpt>
      <trkpt lat="43.34008" lon="-1.61565">
        <ele>57</ele>
        <time>2020-04-07T12:55:51Z</time>
      </trkpt>
      <trkpt lat="43.33962" lon="-1.61557">
        <ele>59</ele>
        <time>2020-04-07T12:56:00Z</time>
      </trkpt>
      <trkpt lat="43.33942" lon="-1.61559">
        <ele>58</ele>
        <time>2020-04-07T12:56:03Z</time>
      </trkpt>
      <trkpt lat="43.3392" lon="-1.61564">
        <ele>56</ele>
        <time>2020-04-07T12:56:07Z</time>
      </trkpt>
      <trkpt lat="43.33892" lon="-1.61563">
        <ele>58</ele>
        <time>2020-04-07T12:56:12Z</time>
      </trkpt>
      <trkpt lat="43.33868" lon="-1.61571">
        <ele>57</ele>
        <time>2020-04-07T12:56:16Z</time>
      </trkpt>
      <trkpt lat="43.33835" lon="-1.61567">
        <ele>61</ele>
        <time>2020-04-07T12:56:22Z</time>
      </trkpt>
      <trkpt lat="43.33807" lon="-1.61573">
        <ele>62</ele>
        <time>2020-04-07T12:56:27Z</time>
      </trkpt>
      <trkpt lat="43.33788" lon="-1.61574">
        <ele>63</ele>
        <time>2020-04-07T12:56:31Z</time>
      </trkpt>
      <trkpt lat="43.33722" lon="-1.61552">
        <ele>71</ele>
        <time>2020-04-07T12:56:43Z</time>
      </trkpt>
      <trkpt lat="43.33696" lon="-1.61543">
        <ele>73</ele>
        <time>2020-04-07T12:56:48Z</time>
      </trkpt>
      <trkpt lat="43.33654" lon="-1.61499">
        <ele>80</ele>
        <time>2020-04-07T12:56:57Z</time>
      </trkpt>
      <trkpt lat="43.33615" lon="-1.61479">
        <ele>79</ele>
        <time>2020-04-07T12:57:04Z</time>
      </trkpt>
      <trkpt lat="43.33602" lon="-1.61468">
        <ele>79</ele>
        <time>2020-04-07T12:57:07Z</time>
      </trkpt>
      <trkpt lat="43.3359" lon="-1.6145">
        <ele>81</ele>
        <time>2020-04-07T12:57:10Z</time>
      </trkpt>
      <trkpt lat="43.33576" lon="-1.61419">
        <ele>85</ele>
        <time>2020-04-07T12:57:15Z</time>
      </trkpt>
      <trkpt lat="43.33566" lon="-1.61407">
        <ele>85</ele>
        <time>2020-04-07T12:57:17Z</time>
      </trkpt>
      <trkpt lat="43.33546" lon="-1.61387">
        <ele>84</ele>
        <time>2020-04-07T12:57:22Z</time>
      </trkpt>
      <trkpt lat="43.33539" lon="-1.61369">
        <ele>86</ele>
        <time>2020-04-07T12:57:24Z</time>
      </trkpt>
      <trkpt lat="43.33538" lon="-1.61319">
        <ele>95</ele>
        <time>2020-04-07T12:57:31Z</time>
      </trkpt>
      <trkpt lat="43.33531" lon="-1.61302">
        <ele>97</ele>
        <time>2020-04-07T12:57:33Z</time>
      </trkpt>
      <trkpt lat="43.33501" lon="-1.61281">
        <ele>95</ele>
        <time>2020-04-07T12:57:39Z</time>
      </trkpt>
      <trkpt lat="43.3348" lon="-1.61233">
        <ele>101</ele>
        <time>2020-04-07T12:57:47Z</time>
      </trkpt>
      <trkpt lat="43.33471" lon="-1.61223">
        <ele>101</ele>
        <time>2020-04-07T12:57:49Z</time>
      </trkpt>
      <trkpt lat="43.33457" lon="-1.61218">
        <ele>98</ele>
        <time>2020-04-07T12:57:51Z</time>
      </trkpt>
      <trkpt lat="43.33448" lon="-1.61219">
        <ele>95</ele>
        <time>2020-04-07T12:57:53Z</time>
      </trkpt>
      <trkpt lat="43.3344" lon="-1.61214">
        <ele>94</ele>
        <time>2020-04-07T12:57:54Z</time>
      </trkpt>
      <trkpt lat="43.33431" lon="-1.612">
        <ele>94</ele>
        <time>2020-04-07T12:57:57Z</time>
      </trkpt>
      <trkpt lat="43.33423" lon="-1.6117">
        <ele>97</ele>
        <time>2020-04-07T12:58:01Z</time>
      </trkpt>
      <trkpt lat="43.33421" lon="-1.61125">
        <ele>100</ele>
        <time>2020-04-07T12:58:07Z</time>
      </trkpt>
      <trkpt lat="43.33423" lon="-1.61102">
        <ele>103</ele>
        <time>2020-04-07T12:58:10Z</time>
      </trkpt>
      <trkpt lat="43.33429" lon="-1.61078">
        <ele>108</ele>
        <time>2020-04-07T12:58:13Z</time>
      </trkpt>
      <trkpt lat="43.3343" lon="-1.61045">
        <ele>108</ele>
        <time>2020-04-07T12:58:17Z</time>
      </trkpt>
      <trkpt lat="43.33439" lon="-1.61015">
        <ele>112</ele>
        <time>2020-04-07T12:58:22Z</time>
      </trkpt>
      <trkpt lat="43.33458" lon="-1.61001">
        <ele>119</ele>
        <time>2020-04-07T12:58:25Z</time>
      </trkpt>
      <trkpt lat="43.33461" lon="-1.60989">
        <ele>121</ele>
        <time>2020-04-07T12:58:27Z</time>
      </trkpt>
      <trkpt lat="43.33457" lon="-1.60973">
        <ele>121</ele>
        <time>2020-04-07T12:58:29Z</time>
      </trkpt>
      <trkpt lat="43.33441" lon="-1.60956">
        <ele>116</ele>
        <time>2020-04-07T12:58:33Z</time>
      </trkpt>
      <trkpt lat="43.33435" lon="-1.60941">
        <ele>115</ele>
        <time>2020-04-07T12:58:35Z</time>
      </trkpt>
      <trkpt lat="43.33434" lon="-1.60918">
        <ele>117</ele>
        <time>2020-04-07T12:58:38Z</time>
      </trkpt>
      <trkpt lat="43.33442" lon="-1.60876">
        <ele>127</ele>
        <time>2020-04-07T12:58:44Z</time>
      </trkpt>
      <trkpt lat="43.33441" lon="-1.60858">
        <ele>130</ele>
        <time>2020-04-07T12:58:46Z</time>
      </trkpt>
      <trkpt lat="43.33434" lon="-1.60846">
        <ele>130</ele>
        <time>2020-04-07T12:58:48Z</time>
      </trkpt>
      <trkpt lat="43.33424" lon="-1.60845">
        <ele>127</ele>
        <time>2020-04-07T12:58:50Z</time>
      </trkpt>
      <trkpt lat="43.33401" lon="-1.60853">
        <ele>121</ele>
        <time>2020-04-07T12:58:54Z</time>
      </trkpt>
      <trkpt lat="43.3339" lon="-1.60852">
        <ele>119</ele>
        <time>2020-04-07T12:58:56Z</time>
      </trkpt>
      <trkpt lat="43.33373" lon="-1.60836">
        <ele>120</ele>
        <time>2020-04-07T12:59:00Z</time>
      </trkpt>
      <trkpt lat="43.33359" lon="-1.60813">
        <ele>122</ele>
        <time>2020-04-07T12:59:04Z</time>
      </trkpt>
      <trkpt lat="43.33353" lon="-1.60788">
        <ele>125</ele>
        <time>2020-04-07T12:59:07Z</time>
      </trkpt>
      <trkpt lat="43.33353" lon="-1.60767">
        <ele>129</ele>
        <time>2020-04-07T12:59:10Z</time>
      </trkpt>
      <trkpt lat="43.33344" lon="-1.60746">
        <ele>131</ele>
        <time>2020-04-07T12:59:13Z</time>
      </trkpt>
      <trkpt lat="43.33331" lon="-1.60735">
        <ele>131</ele>
        <time>2020-04-07T12:59:16Z</time>
      </trkpt>
      <trkpt lat="43.33317" lon="-1.60728">
        <ele>129</ele>
        <time>2020-04-07T12:59:18Z</time>
      </trkpt>
      <trkpt lat="43.33268" lon="-1.60651">
        <ele>132</ele>
        <time>2020-04-07T12:59:31Z</time>
      </trkpt>
      <trkpt lat="43.33249" lon="-1.60601">
        <ele>136</ele>
        <time>2020-04-07T12:59:39Z</time>
      </trkpt>
      <trkpt lat="43.33243" lon="-1.6057">
        <ele>140</ele>
        <time>2020-04-07T12:59:43Z</time>
      </trkpt>
      <trkpt lat="43.33247" lon="-1.60524">
        <ele>147</ele>
        <time>2020-04-07T12:59:49Z</time>
      </trkpt>
      <trkpt lat="43.33244" lon="-1.60513">
        <ele>148</ele>
        <time>2020-04-07T12:59:50Z</time>
      </trkpt>
      <trkpt lat="43.33234" lon="-1.60504">
        <ele>146</ele>
        <time>2020-04-07T12:59:52Z</time>
      </trkpt>
      <trkpt lat="43.33212" lon="-1.60497">
        <ele>141</ele>
        <time>2020-04-07T12:59:57Z</time>
      </trkpt>
      <trkpt lat="43.33199" lon="-1.60488">
        <ele>139</ele>
        <time>2020-04-07T12:59:59Z</time>
      </trkpt>
      <trkpt lat="43.33185" lon="-1.60466">
        <ele>139</ele>
        <time>2020-04-07T13:00:03Z</time>
      </trkpt>
      <trkpt lat="43.33178" lon="-1.60435">
        <ele>142</ele>
        <time>2020-04-07T13:00:07Z</time>
      </trkpt>
      <trkpt lat="43.33174" lon="-1.60406">
        <ele>145</ele>
        <time>2020-04-07T13:00:11Z</time>
      </trkpt>
      <trkpt lat="43.33156" lon="-1.60359">
        <ele>148</ele>
        <time>2020-04-07T13:00:18Z</time>
      </trkpt>
      <trkpt lat="43.33143" lon="-1.60316">
        <ele>150</ele>
        <time>2020-04-07T13:00:24Z</time>
      </trkpt>
      <trkpt lat="43.33128" lon="-1.60292">
        <ele>150</ele>
        <time>2020-04-07T13:00:28Z</time>
      </trkpt>
      <trkpt lat="43.3311" lon="-1.60273">
        <ele>151</ele>
        <time>2020-04-07T13:00:32Z</time>
      </trkpt>
      <trkpt lat="43.33094" lon="-1.60262">
        <ele>152</ele>
        <time>2020-04-07T13:00:35Z</time>
      </trkpt>
      <trkpt lat="43.33073" lon="-1.60252">
        <ele>152</ele>
        <time>2020-04-07T13:00:39Z</time>
      </trkpt>
      <trkpt lat="43.33019" lon="-1.60227">
        <ele>155</ele>
        <time>2020-04-07T13:00:49Z</time>
      </trkpt>
      <trkpt lat="43.32981" lon="-1.60215">
        <ele>158</ele>
        <time>2020-04-07T13:00:56Z</time>
      </trkpt>
      <trkpt lat="43.32899" lon="-1.60204">
        <ele>162</ele>
        <time>2020-04-07T13:01:11Z</time>
      </trkpt>
      <trkpt lat="43.32792" lon="-1.60191">
        <ele>164</ele>
        <time>2020-04-07T13:01:30Z</time>
      </trkpt>
      <trkpt lat="43.32772" lon="-1.60187">
        <ele>164</ele>
        <time>2020-04-07T13:01:34Z</time>
      </trkpt>
      <trkpt lat="43.32751" lon="-1.60178">
        <ele>166</ele>
        <time>2020-04-07T13:01:37Z</time>
      </trkpt>
      <trkpt lat="43.32714" lon="-1.60151">
        <ele>168</ele>
        <time>2020-04-07T13:01:45Z</time>
      </trkpt>
      <trkpt lat="43.32685" lon="-1.60134">
        <ele>169</ele>
        <time>2020-04-07T13:01:50Z</time>
      </trkpt>
      <trkpt lat="43.32596" lon="-1.60104">
        <ele>168</ele>
        <time>2020-04-07T13:02:07Z</time>
      </trkpt>
      <trkpt lat="43.32578" lon="-1.60097">
        <ele>168</ele>
        <time>2020-04-07T13:02:10Z</time>
      </trkpt>
      <trkpt lat="43.32561" lon="-1.60087">
        <ele>170</ele>
        <time>2020-04-07T13:02:13Z</time>
      </trkpt>
      <trkpt lat="43.32529" lon="-1.60061">
        <ele>173</ele>
        <time>2020-04-07T13:02:20Z</time>
      </trkpt>
      <trkpt lat="43.32517" lon="-1.60054">
        <ele>174</ele>
        <time>2020-04-07T13:02:22Z</time>
      </trkpt>
      <trkpt lat="43.32507" lon="-1.60054">
        <ele>173</ele>
        <time>2020-04-07T13:02:24Z</time>
      </trkpt>
      <trkpt lat="43.32498" lon="-1.60056">
        <ele>173</ele>
        <time>2020-04-07T13:02:26Z</time>
      </trkpt>
      <trkpt lat="43.32491" lon="-1.60061">
        <ele>173</ele>
        <time>2020-04-07T13:02:27Z</time>
      </trkpt>
      <trkpt lat="43.32443" lon="-1.60102">
        <ele>178</ele>
        <time>2020-04-07T13:02:37Z</time>
      </trkpt>
      <trkpt lat="43.32436" lon="-1.60104">
        <ele>179</ele>
        <time>2020-04-07T13:02:38Z</time>
      </trkpt>
      <trkpt lat="43.3243" lon="-1.60102">
        <ele>179</ele>
        <time>2020-04-07T13:02:40Z</time>
      </trkpt>
      <trkpt lat="43.32423" lon="-1.60097">
        <ele>179</ele>
        <time>2020-04-07T13:02:41Z</time>
      </trkpt>
      <trkpt lat="43.32387" lon="-1.60043">
        <ele>180</ele>
        <time>2020-04-07T13:02:50Z</time>
      </trkpt>
      <trkpt lat="43.32377" lon="-1.60034">
        <ele>181</ele>
        <time>2020-04-07T13:02:53Z</time>
      </trkpt>
      <trkpt lat="43.32364" lon="-1.60026">
        <ele>182</ele>
        <time>2020-04-07T13:02:55Z</time>
      </trkpt>
      <trkpt lat="43.32335" lon="-1.60014">
        <ele>184</ele>
        <time>2020-04-07T13:03:01Z</time>
      </trkpt>
      <trkpt lat="43.32306" lon="-1.59999">
        <ele>184</ele>
        <time>2020-04-07T13:03:06Z</time>
      </trkpt>
      <trkpt lat="43.32286" lon="-1.59984">
        <ele>184</ele>
        <time>2020-04-07T13:03:10Z</time>
      </trkpt>
      <trkpt lat="43.32265" lon="-1.59959">
        <ele>181</ele>
        <time>2020-04-07T13:03:15Z</time>
      </trkpt>
      <trkpt lat="43.32252" lon="-1.59949">
        <ele>180</ele>
        <time>2020-04-07T13:03:18Z</time>
      </trkpt>
      <trkpt lat="43.32242" lon="-1.59947">
        <ele>181</ele>
        <time>2020-04-07T13:03:19Z</time>
      </trkpt>
      <trkpt lat="43.3223" lon="-1.59953">
        <ele>183</ele>
        <time>2020-04-07T13:03:22Z</time>
      </trkpt>
      <trkpt lat="43.32203" lon="-1.5999">
        <ele>191</ele>
        <time>2020-04-07T13:03:29Z</time>
      </trkpt>
      <trkpt lat="43.32191" lon="-1.59993">
        <ele>192</ele>
        <time>2020-04-07T13:03:31Z</time>
      </trkpt>
      <trkpt lat="43.32187" lon="-1.5999">
        <ele>192</ele>
        <time>2020-04-07T13:03:32Z</time>
      </trkpt>
      <trkpt lat="43.32183" lon="-1.59986">
        <ele>191</ele>
        <time>2020-04-07T13:03:32Z</time>
      </trkpt>
      <trkpt lat="43.32181" lon="-1.59981">
        <ele>191</ele>
        <time>2020-04-07T13:03:33Z</time>
      </trkpt>
      <trkpt lat="43.32182" lon="-1.59969">
        <ele>189</ele>
        <time>2020-04-07T13:03:35Z</time>
      </trkpt>
      <trkpt lat="43.32189" lon="-1.59943">
        <ele>184</ele>
        <time>2020-04-07T13:03:38Z</time>
      </trkpt>
      <trkpt lat="43.3219" lon="-1.59928">
        <ele>182</ele>
        <time>2020-04-07T13:03:40Z</time>
      </trkpt>
      <trkpt lat="43.32187" lon="-1.59887">
        <ele>178</ele>
        <time>2020-04-07T13:03:46Z</time>
      </trkpt>
      <trkpt lat="43.32184" lon="-1.59866">
        <ele>177</ele>
        <time>2020-04-07T13:03:48Z</time>
      </trkpt>
      <trkpt lat="43.32172" lon="-1.59841">
        <ele>177</ele>
        <time>2020-04-07T13:03:52Z</time>
      </trkpt>
      <trkpt lat="43.32154" lon="-1.5982">
        <ele>175</ele>
        <time>2020-04-07T13:03:56Z</time>
      </trkpt>
      <trkpt lat="43.32138" lon="-1.59812">
        <ele>174</ele>
        <time>2020-04-07T13:03:59Z</time>
      </trkpt>
      <trkpt lat="43.32103" lon="-1.59803">
        <ele>175</ele>
        <time>2020-04-07T13:04:06Z</time>
      </trkpt>
      <trkpt lat="43.3206" lon="-1.59781">
        <ele>169</ele>
        <time>2020-04-07T13:04:14Z</time>
      </trkpt>
      <trkpt lat="43.32052" lon="-1.59779">
        <ele>167</ele>
        <time>2020-04-07T13:04:15Z</time>
      </trkpt>
      <trkpt lat="43.32042" lon="-1.59788">
        <ele>168</ele>
        <time>2020-04-07T13:04:18Z</time>
      </trkpt>
      <trkpt lat="43.32027" lon="-1.59816">
        <ele>173</ele>
        <time>2020-04-07T13:04:22Z</time>
      </trkpt>
      <trkpt lat="43.3202" lon="-1.59824">
        <ele>174</ele>
        <time>2020-04-07T13:04:24Z</time>
      </trkpt>
      <trkpt lat="43.32" lon="-1.59835">
        <ele>173</ele>
        <time>2020-04-07T13:04:27Z</time>
      </trkpt>
      <trkpt lat="43.31976" lon="-1.59855">
        <ele>178</ele>
        <time>2020-04-07T13:04:32Z</time>
      </trkpt>
      <trkpt lat="43.3197" lon="-1.59856">
        <ele>178</ele>
        <time>2020-04-07T13:04:34Z</time>
      </trkpt>
      <trkpt lat="43.31963" lon="-1.59854">
        <ele>178</ele>
        <time>2020-04-07T13:04:35Z</time>
      </trkpt>
      <trkpt lat="43.31932" lon="-1.5983">
        <ele>171</ele>
        <time>2020-04-07T13:04:41Z</time>
      </trkpt>
      <trkpt lat="43.3192" lon="-1.59822">
        <ele>170</ele>
        <time>2020-04-07T13:04:44Z</time>
      </trkpt>
      <trkpt lat="43.31893" lon="-1.59824">
        <ele>172</ele>
        <time>2020-04-07T13:04:48Z</time>
      </trkpt>
      <trkpt lat="43.31884" lon="-1.59819">
        <ele>172</ele>
        <time>2020-04-07T13:04:50Z</time>
      </trkpt>
      <trkpt lat="43.31879" lon="-1.5981">
        <ele>171</ele>
        <time>2020-04-07T13:04:52Z</time>
      </trkpt>
      <trkpt lat="43.31876" lon="-1.59804">
        <ele>170</ele>
        <time>2020-04-07T13:04:52Z</time>
      </trkpt>
      <trkpt lat="43.31874" lon="-1.59797">
        <ele>169</ele>
        <time>2020-04-07T13:04:53Z</time>
      </trkpt>
      <trkpt lat="43.31867" lon="-1.59787">
        <ele>167</ele>
        <time>2020-04-07T13:04:55Z</time>
      </trkpt>
      <trkpt lat="43.31825" lon="-1.59764">
        <ele>167</ele>
        <time>2020-04-07T13:05:03Z</time>
      </trkpt>
      <trkpt lat="43.31813" lon="-1.59751">
        <ele>167</ele>
        <time>2020-04-07T13:05:06Z</time>
      </trkpt>
      <trkpt lat="43.31799" lon="-1.59731">
        <ele>166</ele>
        <time>2020-04-07T13:05:10Z</time>
      </trkpt>
      <trkpt lat="43.3179" lon="-1.59724">
        <ele>166</ele>
        <time>2020-04-07T13:05:11Z</time>
      </trkpt>
      <trkpt lat="43.31777" lon="-1.5972">
        <ele>167</ele>
        <time>2020-04-07T13:05:14Z</time>
      </trkpt>
      <trkpt lat="43.31758" lon="-1.59724">
        <ele>171</ele>
        <time>2020-04-07T13:05:17Z</time>
      </trkpt>
      <trkpt lat="43.31747" lon="-1.59692">
        <ele>166</ele>
        <time>2020-04-07T13:05:22Z</time>
      </trkpt>
      <trkpt lat="43.31729" lon="-1.59677">
        <ele>169</ele>
        <time>2020-04-07T13:05:26Z</time>
      </trkpt>
      <trkpt lat="43.31723" lon="-1.59669">
        <ele>170</ele>
        <time>2020-04-07T13:05:27Z</time>
      </trkpt>
      <trkpt lat="43.31725" lon="-1.59656">
        <ele>167</ele>
        <time>2020-04-07T13:05:29Z</time>
      </trkpt>
      <trkpt lat="43.31735" lon="-1.59635">
        <ele>162</ele>
        <time>2020-04-07T13:05:32Z</time>
      </trkpt>
      <trkpt lat="43.31739" lon="-1.59601">
        <ele>157</ele>
        <time>2020-04-07T13:05:36Z</time>
      </trkpt>
      <trkpt lat="43.31737" lon="-1.5958">
        <ele>155</ele>
        <time>2020-04-07T13:05:39Z</time>
      </trkpt>
      <trkpt lat="43.31727" lon="-1.59559">
        <ele>155</ele>
        <time>2020-04-07T13:05:42Z</time>
      </trkpt>
      <trkpt lat="43.31702" lon="-1.59527">
        <ele>155</ele>
        <time>2020-04-07T13:05:49Z</time>
      </trkpt>
      <trkpt lat="43.31682" lon="-1.59514">
        <ele>157</ele>
        <time>2020-04-07T13:05:52Z</time>
      </trkpt>
      <trkpt lat="43.31658" lon="-1.59487">
        <ele>155</ele>
        <time>2020-04-07T13:05:58Z</time>
      </trkpt>
      <trkpt lat="43.31647" lon="-1.59481">
        <ele>156</ele>
        <time>2020-04-07T13:06:00Z</time>
      </trkpt>
      <trkpt lat="43.31624" lon="-1.59474">
        <ele>158</ele>
        <time>2020-04-07T13:06:04Z</time>
      </trkpt>
      <trkpt lat="43.31616" lon="-1.59461">
        <ele>156</ele>
        <time>2020-04-07T13:06:06Z</time>
      </trkpt>
      <trkpt lat="43.316" lon="-1.59428">
        <ele>151</ele>
        <time>2020-04-07T13:06:12Z</time>
      </trkpt>
      <trkpt lat="43.31587" lon="-1.59417">
        <ele>151</ele>
        <time>2020-04-07T13:06:14Z</time>
      </trkpt>
      <trkpt lat="43.31554" lon="-1.59408">
        <ele>156</ele>
        <time>2020-04-07T13:06:20Z</time>
      </trkpt>
      <trkpt lat="43.31549" lon="-1.59402">
        <ele>156</ele>
        <time>2020-04-07T13:06:22Z</time>
      </trkpt>
      <trkpt lat="43.31537" lon="-1.59372">
        <ele>155</ele>
        <time>2020-04-07T13:06:26Z</time>
      </trkpt>
      <trkpt lat="43.31524" lon="-1.5936">
        <ele>157</ele>
        <time>2020-04-07T13:06:29Z</time>
      </trkpt>
      <trkpt lat="43.31514" lon="-1.59346">
        <ele>158</ele>
        <time>2020-04-07T13:06:31Z</time>
      </trkpt>
      <trkpt lat="43.31516" lon="-1.59328">
        <ele>156</ele>
        <time>2020-04-07T13:06:34Z</time>
      </trkpt>
      <trkpt lat="43.3153" lon="-1.59315">
        <ele>152</ele>
        <time>2020-04-07T13:06:37Z</time>
      </trkpt>
      <trkpt lat="43.31542" lon="-1.59296">
        <ele>148</ele>
        <time>2020-04-07T13:06:40Z</time>
      </trkpt>
      <trkpt lat="43.31552" lon="-1.59274">
        <ele>145</ele>
        <time>2020-04-07T13:06:43Z</time>
      </trkpt>
      <trkpt lat="43.31587" lon="-1.59177">
        <ele>136</ele>
        <time>2020-04-07T13:06:57Z</time>
      </trkpt>
      <trkpt lat="43.31594" lon="-1.59155">
        <ele>135</ele>
        <time>2020-04-07T13:07:00Z</time>
      </trkpt>
      <trkpt lat="43.31597" lon="-1.59124">
        <ele>137</ele>
        <time>2020-04-07T13:07:04Z</time>
      </trkpt>
      <trkpt lat="43.31602" lon="-1.59111">
        <ele>137</ele>
        <time>2020-04-07T13:07:06Z</time>
      </trkpt>
      <trkpt lat="43.31613" lon="-1.59102">
        <ele>136</ele>
        <time>2020-04-07T13:07:09Z</time>
      </trkpt>
      <trkpt lat="43.31657" lon="-1.5909">
        <ele>131</ele>
        <time>2020-04-07T13:07:17Z</time>
      </trkpt>
      <trkpt lat="43.3167" lon="-1.59079">
        <ele>131</ele>
        <time>2020-04-07T13:07:19Z</time>
      </trkpt>
      <trkpt lat="43.31692" lon="-1.59044">
        <ele>133</ele>
        <time>2020-04-07T13:07:25Z</time>
      </trkpt>
      <trkpt lat="43.31715" lon="-1.59028">
        <ele>132</ele>
        <time>2020-04-07T13:07:30Z</time>
      </trkpt>
      <trkpt lat="43.31735" lon="-1.59027">
        <ele>130</ele>
        <time>2020-04-07T13:07:33Z</time>
      </trkpt>
      <trkpt lat="43.31763" lon="-1.59035">
        <ele>126</ele>
        <time>2020-04-07T13:07:39Z</time>
      </trkpt>
      <trkpt lat="43.31772" lon="-1.59034">
        <ele>125</ele>
        <time>2020-04-07T13:07:40Z</time>
      </trkpt>
      <trkpt lat="43.3178" lon="-1.59029">
        <ele>126</ele>
        <time>2020-04-07T13:07:42Z</time>
      </trkpt>
      <trkpt lat="43.31804" lon="-1.58995">
        <ele>129</ele>
        <time>2020-04-07T13:07:48Z</time>
      </trkpt>
      <trkpt lat="43.31813" lon="-1.58973">
        <ele>128</ele>
        <time>2020-04-07T13:07:51Z</time>
      </trkpt>
      <trkpt lat="43.31814" lon="-1.58961">
        <ele>128</ele>
        <time>2020-04-07T13:07:53Z</time>
      </trkpt>
      <trkpt lat="43.31812" lon="-1.58952">
        <ele>128</ele>
        <time>2020-04-07T13:07:54Z</time>
      </trkpt>
      <trkpt lat="43.31804" lon="-1.58939">
        <ele>128</ele>
        <time>2020-04-07T13:07:56Z</time>
      </trkpt>
      <trkpt lat="43.31793" lon="-1.58932">
        <ele>128</ele>
        <time>2020-04-07T13:07:58Z</time>
      </trkpt>
      <trkpt lat="43.31768" lon="-1.58931">
        <ele>128</ele>
        <time>2020-04-07T13:08:03Z</time>
      </trkpt>
      <trkpt lat="43.31763" lon="-1.58929">
        <ele>128</ele>
        <time>2020-04-07T13:08:04Z</time>
      </trkpt>
      <trkpt lat="43.31755" lon="-1.58926">
        <ele>128</ele>
        <time>2020-04-07T13:08:05Z</time>
      </trkpt>
      <trkpt lat="43.31705" lon="-1.58876">
        <ele>123</ele>
        <time>2020-04-07T13:08:16Z</time>
      </trkpt>
      <trkpt lat="43.31695" lon="-1.58873">
        <ele>123</ele>
        <time>2020-04-07T13:08:18Z</time>
      </trkpt>
      <trkpt lat="43.31651" lon="-1.58868">
        <ele>122</ele>
        <time>2020-04-07T13:08:26Z</time>
      </trkpt>
      <trkpt lat="43.31613" lon="-1.58856">
        <ele>119</ele>
        <time>2020-04-07T13:08:33Z</time>
      </trkpt>
      <trkpt lat="43.31553" lon="-1.58858">
        <ele>117</ele>
        <time>2020-04-07T13:08:43Z</time>
      </trkpt>
      <trkpt lat="43.31529" lon="-1.58853">
        <ele>114</ele>
        <time>2020-04-07T13:08:48Z</time>
      </trkpt>
      <trkpt lat="43.31515" lon="-1.58856">
        <ele>114</ele>
        <time>2020-04-07T13:08:50Z</time>
      </trkpt>
      <trkpt lat="43.31503" lon="-1.58861">
        <ele>114</ele>
        <time>2020-04-07T13:08:52Z</time>
      </trkpt>
      <trkpt lat="43.31493" lon="-1.5886">
        <ele>113</ele>
        <time>2020-04-07T13:08:54Z</time>
      </trkpt>
      <trkpt lat="43.31489" lon="-1.58852">
        <ele>111</ele>
        <time>2020-04-07T13:08:55Z</time>
      </trkpt>
      <trkpt lat="43.3149" lon="-1.58841">
        <ele>108</ele>
        <time>2020-04-07T13:08:57Z</time>
      </trkpt>
      <trkpt lat="43.31501" lon="-1.58834">
        <ele>107</ele>
        <time>2020-04-07T13:08:59Z</time>
      </trkpt>
      <trkpt lat="43.3155" lon="-1.58832">
        <ele>111</ele>
        <time>2020-04-07T13:09:08Z</time>
      </trkpt>
      <trkpt lat="43.31585" lon="-1.58822">
        <ele>111</ele>
        <time>2020-04-07T13:09:14Z</time>
      </trkpt>
      <trkpt lat="43.31617" lon="-1.58807">
        <ele>107</ele>
        <time>2020-04-07T13:09:20Z</time>
      </trkpt>
      <trkpt lat="43.31655" lon="-1.58801">
        <ele>107</ele>
        <time>2020-04-07T13:09:27Z</time>
      </trkpt>
      <trkpt lat="43.31716" lon="-1.58797">
        <ele>109</ele>
        <time>2020-04-07T13:09:38Z</time>
      </trkpt>
      <trkpt lat="43.31721" lon="-1.5879">
        <ele>108</ele>
        <time>2020-04-07T13:09:39Z</time>
      </trkpt>
      <trkpt lat="43.3172" lon="-1.58782">
        <ele>107</ele>
        <time>2020-04-07T13:09:40Z</time>
      </trkpt>
      <trkpt lat="43.31696" lon="-1.58753">
        <ele>100</ele>
        <time>2020-04-07T13:09:46Z</time>
      </trkpt>
      <trkpt lat="43.31648" lon="-1.58716">
        <ele>92</ele>
        <time>2020-04-07T13:09:56Z</time>
      </trkpt>
      <trkpt lat="43.3163" lon="-1.58688">
        <ele>88</ele>
        <time>2020-04-07T13:10:00Z</time>
      </trkpt>
      <trkpt lat="43.31624" lon="-1.58666">
        <ele>85</ele>
        <time>2020-04-07T13:10:04Z</time>
      </trkpt>
      <trkpt lat="43.31621" lon="-1.58656">
        <ele>84</ele>
        <time>2020-04-07T13:10:05Z</time>
      </trkpt>
      <trkpt lat="43.31582" lon="-1.58483">
        <ele>72</ele>
        <time>2020-04-07T13:10:28Z</time>
      </trkpt>
      <trkpt lat="43.31558" lon="-1.58411">
        <ele>69</ele>
        <time>2020-04-07T13:10:39Z</time>
      </trkpt>
      <trkpt lat="43.31543" lon="-1.5839">
        <ele>67</ele>
        <time>2020-04-07T13:10:42Z</time>
      </trkpt>
      <trkpt lat="43.31506" lon="-1.58349">
        <ele>65</ele>
        <time>2020-04-07T13:10:51Z</time>
      </trkpt>
      <trkpt lat="43.31482" lon="-1.58323">
        <ele>63</ele>
        <time>2020-04-07T13:10:56Z</time>
      </trkpt>
      <trkpt lat="43.31472" lon="-1.58315">
        <ele>62</ele>
        <time>2020-04-07T13:10:58Z</time>
      </trkpt>
      <trkpt lat="43.31464" lon="-1.58313">
        <ele>62</ele>
        <time>2020-04-07T13:11:00Z</time>
      </trkpt>
      <trkpt lat="43.31459" lon="-1.58313">
        <ele>62</ele>
        <time>2020-04-07T13:11:01Z</time>
      </trkpt>
      <trkpt lat="43.31455" lon="-1.58311">
        <ele>61</ele>
        <time>2020-04-07T13:11:01Z</time>
      </trkpt>
      <trkpt lat="43.31443" lon="-1.58321">
        <ele>61</ele>
        <time>2020-04-07T13:11:04Z</time>
      </trkpt>
      <trkpt lat="43.31425" lon="-1.58356">
        <ele>61</ele>
        <time>2020-04-07T13:11:10Z</time>
      </trkpt>
      <trkpt lat="43.31412" lon="-1.58371">
        <ele>61</ele>
        <time>2020-04-07T13:11:13Z</time>
      </trkpt>
      <trkpt lat="43.31351" lon="-1.58408">
        <ele>61</ele>
        <time>2020-04-07T13:11:24Z</time>
      </trkpt>
      <trkpt lat="43.31319" lon="-1.58425">
        <ele>61</ele>
        <time>2020-04-07T13:11:31Z</time>
      </trkpt>
      <trkpt lat="43.31297" lon="-1.58431">
        <ele>61</ele>
        <time>2020-04-07T13:11:35Z</time>
      </trkpt>
      <trkpt lat="43.31277" lon="-1.58432">
        <ele>61</ele>
        <time>2020-04-07T13:11:38Z</time>
      </trkpt>
      <trkpt lat="43.31234" lon="-1.58424">
        <ele>61</ele>
        <time>2020-04-07T13:11:46Z</time>
      </trkpt>
      <trkpt lat="43.31177" lon="-1.58415">
        <ele>60</ele>
        <time>2020-04-07T13:11:56Z</time>
      </trkpt>
      <trkpt lat="43.31167" lon="-1.58415">
        <ele>60</ele>
        <time>2020-04-07T13:11:58Z</time>
      </trkpt>
      <trkpt lat="43.31151" lon="-1.58417">
        <ele>60</ele>
        <time>2020-04-07T13:12:01Z</time>
      </trkpt>
      <trkpt lat="43.31139" lon="-1.5842">
        <ele>60</ele>
        <time>2020-04-07T13:12:03Z</time>
      </trkpt>
      <trkpt lat="43.31124" lon="-1.58425">
        <ele>60</ele>
        <time>2020-04-07T13:12:06Z</time>
      </trkpt>
      <trkpt lat="43.31111" lon="-1.5843">
        <ele>59</ele>
        <time>2020-04-07T13:12:08Z</time>
      </trkpt>
      <trkpt lat="43.31045" lon="-1.58476">
        <ele>61</ele>
        <time>2020-04-07T13:12:21Z</time>
      </trkpt>
      <trkpt lat="43.30998" lon="-1.58508">
        <ele>64</ele>
        <time>2020-04-07T13:12:30Z</time>
      </trkpt>
      <trkpt lat="43.30918" lon="-1.58569">
        <ele>65</ele>
        <time>2020-04-07T13:12:47Z</time>
      </trkpt>
      <trkpt lat="43.30885" lon="-1.58596">
        <ele>66</ele>
        <time>2020-04-07T13:12:54Z</time>
      </trkpt>
      <trkpt lat="43.30871" lon="-1.58611">
        <ele>67</ele>
        <time>2020-04-07T13:12:57Z</time>
      </trkpt>
      <trkpt lat="43.30862" lon="-1.58622">
        <ele>67</ele>
        <time>2020-04-07T13:12:59Z</time>
      </trkpt>
      <trkpt lat="43.30849" lon="-1.58642">
        <ele>68</ele>
        <time>2020-04-07T13:13:02Z</time>
      </trkpt>
      <trkpt lat="43.30775" lon="-1.58762">
        <ele>73</ele>
        <time>2020-04-07T13:13:23Z</time>
      </trkpt>
      <trkpt lat="43.30727" lon="-1.58841">
        <ele>77</ele>
        <time>2020-04-07T13:13:36Z</time>
      </trkpt>
      <trkpt lat="43.3071" lon="-1.58871">
        <ele>78</ele>
        <time>2020-04-07T13:13:41Z</time>
      </trkpt>
      <trkpt lat="43.30697" lon="-1.589">
        <ele>80</ele>
        <time>2020-04-07T13:13:45Z</time>
      </trkpt>
      <trkpt lat="43.30682" lon="-1.58928">
        <ele>80</ele>
        <time>2020-04-07T13:13:50Z</time>
      </trkpt>
      <trkpt lat="43.30675" lon="-1.5894">
        <ele>81</ele>
        <time>2020-04-07T13:13:52Z</time>
      </trkpt>
      <trkpt lat="43.30579" lon="-1.59085">
        <ele>88</ele>
        <time>2020-04-07T13:14:17Z</time>
      </trkpt>
      <trkpt lat="43.3053" lon="-1.5916">
        <ele>90</ele>
        <time>2020-04-07T13:14:30Z</time>
      </trkpt>
      <trkpt lat="43.30494" lon="-1.59208">
        <ele>93</ele>
        <time>2020-04-07T13:14:39Z</time>
      </trkpt>
      <trkpt lat="43.30476" lon="-1.5923">
        <ele>95</ele>
        <time>2020-04-07T13:14:44Z</time>
      </trkpt>
      <trkpt lat="43.30469" lon="-1.59235">
        <ele>96</ele>
        <time>2020-04-07T13:14:45Z</time>
      </trkpt>
      <trkpt lat="43.3046" lon="-1.59243">
        <ele>97</ele>
        <time>2020-04-07T13:14:47Z</time>
      </trkpt>
      <trkpt lat="43.3041" lon="-1.59275">
        <ele>99</ele>
        <time>2020-04-07T13:14:57Z</time>
      </trkpt>
      <trkpt lat="43.3039" lon="-1.59285">
        <ele>100</ele>
        <time>2020-04-07T13:15:00Z</time>
      </trkpt>
      <trkpt lat="43.30377" lon="-1.59287">
        <ele>100</ele>
        <time>2020-04-07T13:15:03Z</time>
      </trkpt>
      <trkpt lat="43.30294" lon="-1.59278">
        <ele>102</ele>
        <time>2020-04-07T13:15:18Z</time>
      </trkpt>
      <trkpt lat="43.30269" lon="-1.59269">
        <ele>102</ele>
        <time>2020-04-07T13:15:22Z</time>
      </trkpt>
      <trkpt lat="43.30254" lon="-1.5926">
        <ele>101</ele>
        <time>2020-04-07T13:15:25Z</time>
      </trkpt>
      <trkpt lat="43.30245" lon="-1.59252">
        <ele>101</ele>
        <time>2020-04-07T13:15:27Z</time>
      </trkpt>
      <trkpt lat="43.30234" lon="-1.59236">
        <ele>101</ele>
        <time>2020-04-07T13:15:30Z</time>
      </trkpt>
      <trkpt lat="43.30218" lon="-1.59207">
        <ele>101</ele>
        <time>2020-04-07T13:15:35Z</time>
      </trkpt>
      <trkpt lat="43.30199" lon="-1.59173">
        <ele>101</ele>
        <time>2020-04-07T13:15:40Z</time>
      </trkpt>
      <trkpt lat="43.30164" lon="-1.59116">
        <ele>103</ele>
        <time>2020-04-07T13:15:50Z</time>
      </trkpt>
      <trkpt lat="43.30149" lon="-1.59094">
        <ele>103</ele>
        <time>2020-04-07T13:15:54Z</time>
      </trkpt>
      <trkpt lat="43.30134" lon="-1.59077">
        <ele>103</ele>
        <time>2020-04-07T13:15:57Z</time>
      </trkpt>
      <trkpt lat="43.30111" lon="-1.59052">
        <ele>103</ele>
        <time>2020-04-07T13:16:02Z</time>
      </trkpt>
      <trkpt lat="43.30061" lon="-1.58991">
        <ele>102</ele>
        <time>2020-04-07T13:16:14Z</time>
      </trkpt>
      <trkpt lat="43.30044" lon="-1.58975">
        <ele>101</ele>
        <time>2020-04-07T13:16:18Z</time>
      </trkpt>
      <trkpt lat="43.30031" lon="-1.58968">
        <ele>101</ele>
        <time>2020-04-07T13:16:20Z</time>
      </trkpt>
      <trkpt lat="43.29938" lon="-1.58933">
        <ele>99</ele>
        <time>2020-04-07T13:16:38Z</time>
      </trkpt>
      <trkpt lat="43.2991" lon="-1.58932">
        <ele>98</ele>
        <time>2020-04-07T13:16:43Z</time>
      </trkpt>
      <trkpt lat="43.29831" lon="-1.58953">
        <ele>94</ele>
        <time>2020-04-07T13:16:57Z</time>
      </trkpt>
      <trkpt lat="43.29805" lon="-1.5896">
        <ele>92</ele>
        <time>2020-04-07T13:17:02Z</time>
      </trkpt>
      <trkpt lat="43.29781" lon="-1.58973">
        <ele>90</ele>
        <time>2020-04-07T13:17:06Z</time>
      </trkpt>
      <trkpt lat="43.29757" lon="-1.58996">
        <ele>89</ele>
        <time>2020-04-07T13:17:11Z</time>
      </trkpt>
      <trkpt lat="43.29732" lon="-1.59033">
        <ele>89</ele>
        <time>2020-04-07T13:17:18Z</time>
      </trkpt>
      <trkpt lat="43.29704" lon="-1.59054">
        <ele>88</ele>
        <time>2020-04-07T13:17:24Z</time>
      </trkpt>
      <trkpt lat="43.29642" lon="-1.59096">
        <ele>86</ele>
        <time>2020-04-07T13:17:36Z</time>
      </trkpt>
      <trkpt lat="43.29564" lon="-1.59151">
        <ele>86</ele>
        <time>2020-04-07T13:17:51Z</time>
      </trkpt>
      <trkpt lat="43.29497" lon="-1.59219">
        <ele>89</ele>
        <time>2020-04-07T13:18:06Z</time>
      </trkpt>
      <trkpt lat="43.29476" lon="-1.59238">
        <ele>90</ele>
        <time>2020-04-07T13:18:11Z</time>
      </trkpt>
      <trkpt lat="43.29454" lon="-1.59251">
        <ele>90</ele>
        <time>2020-04-07T13:18:15Z</time>
      </trkpt>
      <trkpt lat="43.29407" lon="-1.59267">
        <ele>95</ele>
        <time>2020-04-07T13:18:24Z</time>
      </trkpt>
      <trkpt lat="43.29375" lon="-1.59283">
        <ele>99</ele>
        <time>2020-04-07T13:18:30Z</time>
      </trkpt>
      <trkpt lat="43.29337" lon="-1.59327">
        <ele>101</ele>
        <time>2020-04-07T13:18:39Z</time>
      </trkpt>
      <trkpt lat="43.29323" lon="-1.59336">
        <ele>102</ele>
        <time>2020-04-07T13:18:41Z</time>
      </trkpt>
      <trkpt lat="43.29284" lon="-1.59348">
        <ele>105</ele>
        <time>2020-04-07T13:18:48Z</time>
      </trkpt>
      <trkpt lat="43.29268" lon="-1.59359">
        <ele>109</ele>
        <time>2020-04-07T13:18:52Z</time>
      </trkpt>
      <trkpt lat="43.29184" lon="-1.59428">
        <ele>118</ele>
        <time>2020-04-07T13:19:09Z</time>
      </trkpt>
      <trkpt lat="43.29164" lon="-1.59447">
        <ele>120</ele>
        <time>2020-04-07T13:19:13Z</time>
      </trkpt>
      <trkpt lat="43.29153" lon="-1.59461">
        <ele>122</ele>
        <time>2020-04-07T13:19:16Z</time>
      </trkpt>
      <trkpt lat="43.29129" lon="-1.59502">
        <ele>127</ele>
        <time>2020-04-07T13:19:23Z</time>
      </trkpt>
      <trkpt lat="43.29116" lon="-1.59517">
        <ele>126</ele>
        <time>2020-04-07T13:19:26Z</time>
      </trkpt>
      <trkpt lat="43.29098" lon="-1.5953">
        <ele>124</ele>
        <time>2020-04-07T13:19:29Z</time>
      </trkpt>
      <trkpt lat="43.29077" lon="-1.59537">
        <ele>120</ele>
        <time>2020-04-07T13:19:33Z</time>
      </trkpt>
      <trkpt lat="43.29058" lon="-1.59546">
        <ele>119</ele>
        <time>2020-04-07T13:19:37Z</time>
      </trkpt>
      <trkpt lat="43.29042" lon="-1.59559">
        <ele>119</ele>
        <time>2020-04-07T13:19:40Z</time>
      </trkpt>
      <trkpt lat="43.29026" lon="-1.59586">
        <ele>121</ele>
        <time>2020-04-07T13:19:45Z</time>
      </trkpt>
      <trkpt lat="43.2902" lon="-1.59612">
        <ele>123</ele>
        <time>2020-04-07T13:19:48Z</time>
      </trkpt>
      <trkpt lat="43.29013" lon="-1.59682">
        <ele>131</ele>
        <time>2020-04-07T13:19:57Z</time>
      </trkpt>
      <trkpt lat="43.29008" lon="-1.59701">
        <ele>134</ele>
        <time>2020-04-07T13:20:00Z</time>
      </trkpt>
      <trkpt lat="43.29" lon="-1.59715">
        <ele>136</ele>
        <time>2020-04-07T13:20:02Z</time>
      </trkpt>
      <trkpt lat="43.28967" lon="-1.59747">
        <ele>134</ele>
        <time>2020-04-07T13:20:09Z</time>
      </trkpt>
      <trkpt lat="43.28946" lon="-1.59766">
        <ele>133</ele>
        <time>2020-04-07T13:20:14Z</time>
      </trkpt>
      <trkpt lat="43.28893" lon="-1.59819">
        <ele>130</ele>
        <time>2020-04-07T13:20:26Z</time>
      </trkpt>
      <trkpt lat="43.28877" lon="-1.59844">
        <ele>129</ele>
        <time>2020-04-07T13:20:30Z</time>
      </trkpt>
      <trkpt lat="43.28847" lon="-1.59898">
        <ele>127</ele>
        <time>2020-04-07T13:20:39Z</time>
      </trkpt>
      <trkpt lat="43.28829" lon="-1.59936">
        <ele>126</ele>
        <time>2020-04-07T13:20:45Z</time>
      </trkpt>
      <trkpt lat="43.28823" lon="-1.59949">
        <ele>126</ele>
        <time>2020-04-07T13:20:47Z</time>
      </trkpt>
      <trkpt lat="43.28797" lon="-1.60013">
        <ele>126</ele>
        <time>2020-04-07T13:20:56Z</time>
      </trkpt>
      <trkpt lat="43.28781" lon="-1.60064">
        <ele>126</ele>
        <time>2020-04-07T13:21:03Z</time>
      </trkpt>
      <trkpt lat="43.28763" lon="-1.60109">
        <ele>128</ele>
        <time>2020-04-07T13:21:10Z</time>
      </trkpt>
      <trkpt lat="43.28724" lon="-1.60189">
        <ele>129</ele>
        <time>2020-04-07T13:21:22Z</time>
      </trkpt>
      <trkpt lat="43.28659" lon="-1.60278">
        <ele>119</ele>
        <time>2020-04-07T13:21:39Z</time>
      </trkpt>
      <trkpt lat="43.28629" lon="-1.60329">
        <ele>119</ele>
        <time>2020-04-07T13:21:47Z</time>
      </trkpt>
      <trkpt lat="43.28619" lon="-1.60362">
        <ele>119</ele>
        <time>2020-04-07T13:21:52Z</time>
      </trkpt>
      <trkpt lat="43.28609" lon="-1.60412">
        <ele>119</ele>
        <time>2020-04-07T13:21:59Z</time>
      </trkpt>
      <trkpt lat="43.28606" lon="-1.60444">
        <ele>119</ele>
        <time>2020-04-07T13:22:03Z</time>
      </trkpt>
      <trkpt lat="43.28612" lon="-1.60505">
        <ele>120</ele>
        <time>2020-04-07T13:22:11Z</time>
      </trkpt>
      <trkpt lat="43.28607" lon="-1.60534">
        <ele>122</ele>
        <time>2020-04-07T13:22:15Z</time>
      </trkpt>
      <trkpt lat="43.28599" lon="-1.6056">
        <ele>123</ele>
        <time>2020-04-07T13:22:18Z</time>
      </trkpt>
      <trkpt lat="43.28583" lon="-1.60585">
        <ele>121</ele>
        <time>2020-04-07T13:22:23Z</time>
      </trkpt>
      <trkpt lat="43.28511" lon="-1.60675">
        <ele>126</ele>
        <time>2020-04-07T13:22:40Z</time>
      </trkpt>
      <trkpt lat="43.285" lon="-1.60701">
        <ele>125</ele>
        <time>2020-04-07T13:22:44Z</time>
      </trkpt>
      <trkpt lat="43.28497" lon="-1.60748">
        <ele>125</ele>
        <time>2020-04-07T13:22:50Z</time>
      </trkpt>
      <trkpt lat="43.28498" lon="-1.60776">
        <ele>124</ele>
        <time>2020-04-07T13:22:53Z</time>
      </trkpt>
      <trkpt lat="43.28505" lon="-1.60851">
        <ele>124</ele>
        <time>2020-04-07T13:23:03Z</time>
      </trkpt>
      <trkpt lat="43.2851" lon="-1.60875">
        <ele>126</ele>
        <time>2020-04-07T13:23:07Z</time>
      </trkpt>
      <trkpt lat="43.28511" lon="-1.60898">
        <ele>126</ele>
        <time>2020-04-07T13:23:09Z</time>
      </trkpt>
      <trkpt lat="43.28508" lon="-1.60928">
        <ele>127</ele>
        <time>2020-04-07T13:23:13Z</time>
      </trkpt>
      <trkpt lat="43.28497" lon="-1.60952">
        <ele>129</ele>
        <time>2020-04-07T13:23:17Z</time>
      </trkpt>
      <trkpt lat="43.28448" lon="-1.61">
        <ele>138</ele>
        <time>2020-04-07T13:23:28Z</time>
      </trkpt>
      <trkpt lat="43.2843" lon="-1.61027">
        <ele>139</ele>
        <time>2020-04-07T13:23:33Z</time>
      </trkpt>
      <trkpt lat="43.28421" lon="-1.6106">
        <ele>139</ele>
        <time>2020-04-07T13:23:37Z</time>
      </trkpt>
      <trkpt lat="43.28412" lon="-1.61124">
        <ele>139</ele>
        <time>2020-04-07T13:23:46Z</time>
      </trkpt>
      <trkpt lat="43.28407" lon="-1.61164">
        <ele>140</ele>
        <time>2020-04-07T13:23:51Z</time>
      </trkpt>
      <trkpt lat="43.28404" lon="-1.61204">
        <ele>142</ele>
        <time>2020-04-07T13:23:56Z</time>
      </trkpt>
      <trkpt lat="43.28399" lon="-1.6124">
        <ele>144</ele>
        <time>2020-04-07T13:24:01Z</time>
      </trkpt>
      <trkpt lat="43.28387" lon="-1.61276">
        <ele>148</ele>
        <time>2020-04-07T13:24:06Z</time>
      </trkpt>
      <trkpt lat="43.28379" lon="-1.61306">
        <ele>149</ele>
        <time>2020-04-07T13:24:10Z</time>
      </trkpt>
      <trkpt lat="43.28375" lon="-1.61343">
        <ele>150</ele>
        <time>2020-04-07T13:24:15Z</time>
      </trkpt>
      <trkpt lat="43.28375" lon="-1.61381">
        <ele>148</ele>
        <time>2020-04-07T13:24:20Z</time>
      </trkpt>
      <trkpt lat="43.28387" lon="-1.61429">
        <ele>147</ele>
        <time>2020-04-07T13:24:26Z</time>
      </trkpt>
      <trkpt lat="43.28386" lon="-1.61451">
        <ele>147</ele>
        <time>2020-04-07T13:24:29Z</time>
      </trkpt>
      <trkpt lat="43.28379" lon="-1.61475">
        <ele>148</ele>
        <time>2020-04-07T13:24:33Z</time>
      </trkpt>
      <trkpt lat="43.28365" lon="-1.61516">
        <ele>146</ele>
        <time>2020-04-07T13:24:38Z</time>
      </trkpt>
      <trkpt lat="43.28362" lon="-1.6154">
        <ele>147</ele>
        <time>2020-04-07T13:24:42Z</time>
      </trkpt>
      <trkpt lat="43.28361" lon="-1.61561">
        <ele>148</ele>
        <time>2020-04-07T13:24:44Z</time>
      </trkpt>
      <trkpt lat="43.28365" lon="-1.61586">
        <ele>150</ele>
        <time>2020-04-07T13:24:48Z</time>
      </trkpt>
      <trkpt lat="43.28385" lon="-1.61649">
        <ele>153</ele>
        <time>2020-04-07T13:24:57Z</time>
      </trkpt>
      <trkpt lat="43.28424" lon="-1.61736">
        <ele>150</ele>
        <time>2020-04-07T13:25:10Z</time>
      </trkpt>
      <trkpt lat="43.2846" lon="-1.61852">
        <ele>152</ele>
        <time>2020-04-07T13:25:26Z</time>
      </trkpt>
      <trkpt lat="43.28471" lon="-1.61898">
        <ele>150</ele>
        <time>2020-04-07T13:25:32Z</time>
      </trkpt>
      <trkpt lat="43.28472" lon="-1.6193">
        <ele>150</ele>
        <time>2020-04-07T13:25:37Z</time>
      </trkpt>
      <trkpt lat="43.28465" lon="-1.62114">
        <ele>155</ele>
        <time>2020-04-07T13:26:00Z</time>
      </trkpt>
      <trkpt lat="43.28464" lon="-1.62119">
        <ele>155</ele>
        <time>2020-04-07T13:26:01Z</time>
      </trkpt>
      <trkpt lat="43.28456" lon="-1.62168">
        <ele>157</ele>
        <time>2020-04-07T13:26:08Z</time>
      </trkpt>
      <trkpt lat="43.28455" lon="-1.62203">
        <ele>158</ele>
        <time>2020-04-07T13:26:12Z</time>
      </trkpt>
      <trkpt lat="43.28463" lon="-1.62255">
        <ele>159</ele>
        <time>2020-04-07T13:26:19Z</time>
      </trkpt>
      <trkpt lat="43.28451" lon="-1.62457">
        <ele>174</ele>
        <time>2020-04-07T13:26:45Z</time>
      </trkpt>
      <trkpt lat="43.28444" lon="-1.62498">
        <ele>176</ele>
        <time>2020-04-07T13:26:51Z</time>
      </trkpt>
      <trkpt lat="43.28417" lon="-1.62609">
        <ele>180</ele>
        <time>2020-04-07T13:27:06Z</time>
      </trkpt>
      <trkpt lat="43.28372" lon="-1.6266">
        <ele>183</ele>
        <time>2020-04-07T13:27:16Z</time>
      </trkpt>
      <trkpt lat="43.28331" lon="-1.62717">
        <ele>183</ele>
        <time>2020-04-07T13:27:27Z</time>
      </trkpt>
      <trkpt lat="43.28305" lon="-1.62763">
        <ele>191</ele>
        <time>2020-04-07T13:27:34Z</time>
      </trkpt>
      <trkpt lat="43.28296" lon="-1.62786">
        <ele>192</ele>
        <time>2020-04-07T13:27:38Z</time>
      </trkpt>
      <trkpt lat="43.28292" lon="-1.62807">
        <ele>192</ele>
        <time>2020-04-07T13:27:40Z</time>
      </trkpt>
      <trkpt lat="43.28288" lon="-1.62842">
        <ele>192</ele>
        <time>2020-04-07T13:27:45Z</time>
      </trkpt>
      <trkpt lat="43.28284" lon="-1.62854">
        <ele>193</ele>
        <time>2020-04-07T13:27:47Z</time>
      </trkpt>
      <trkpt lat="43.28281" lon="-1.62862">
        <ele>193</ele>
        <time>2020-04-07T13:27:48Z</time>
      </trkpt>
      <trkpt lat="43.28265" lon="-1.62887">
        <ele>192</ele>
        <time>2020-04-07T13:27:52Z</time>
      </trkpt>
      <trkpt lat="43.28259" lon="-1.62895">
        <ele>191</ele>
        <time>2020-04-07T13:27:54Z</time>
      </trkpt>
      <trkpt lat="43.2818" lon="-1.63008">
        <ele>200</ele>
        <time>2020-04-07T13:28:14Z</time>
      </trkpt>
      <trkpt lat="43.28166" lon="-1.63025">
        <ele>201</ele>
        <time>2020-04-07T13:28:17Z</time>
      </trkpt>
      <trkpt lat="43.28145" lon="-1.63035">
        <ele>205</ele>
        <time>2020-04-07T13:28:21Z</time>
      </trkpt>
      <trkpt lat="43.28077" lon="-1.63049">
        <ele>216</ele>
        <time>2020-04-07T13:28:33Z</time>
      </trkpt>
      <trkpt lat="43.28063" lon="-1.63057">
        <ele>218</ele>
        <time>2020-04-07T13:28:36Z</time>
      </trkpt>
      <trkpt lat="43.28046" lon="-1.63074">
        <ele>219</ele>
        <time>2020-04-07T13:28:40Z</time>
      </trkpt>
      <trkpt lat="43.28041" lon="-1.63091">
        <ele>219</ele>
        <time>2020-04-07T13:28:42Z</time>
      </trkpt>
      <trkpt lat="43.28042" lon="-1.63106">
        <ele>220</ele>
        <time>2020-04-07T13:28:44Z</time>
      </trkpt>
      <trkpt lat="43.28048" lon="-1.6313">
        <ele>220</ele>
        <time>2020-04-07T13:28:47Z</time>
      </trkpt>
      <trkpt lat="43.28054" lon="-1.63142">
        <ele>220</ele>
        <time>2020-04-07T13:28:49Z</time>
      </trkpt>
      <trkpt lat="43.28059" lon="-1.63148">
        <ele>219</ele>
        <time>2020-04-07T13:28:51Z</time>
      </trkpt>
      <trkpt lat="43.2807" lon="-1.63152">
        <ele>217</ele>
        <time>2020-04-07T13:28:53Z</time>
      </trkpt>
      <trkpt lat="43.28081" lon="-1.63153">
        <ele>215</ele>
        <time>2020-04-07T13:28:55Z</time>
      </trkpt>
      <trkpt lat="43.28099" lon="-1.6315">
        <ele>214</ele>
        <time>2020-04-07T13:28:58Z</time>
      </trkpt>
      <trkpt lat="43.28125" lon="-1.63137">
        <ele>213</ele>
        <time>2020-04-07T13:29:03Z</time>
      </trkpt>
      <trkpt lat="43.28132" lon="-1.63136">
        <ele>212</ele>
        <time>2020-04-07T13:29:04Z</time>
      </trkpt>
      <trkpt lat="43.28141" lon="-1.63139">
        <ele>213</ele>
        <time>2020-04-07T13:29:06Z</time>
      </trkpt>
      <trkpt lat="43.28186" lon="-1.63184">
        <ele>218</ele>
        <time>2020-04-07T13:29:15Z</time>
      </trkpt>
      <trkpt lat="43.2821" lon="-1.63203">
        <ele>220</ele>
        <time>2020-04-07T13:29:20Z</time>
      </trkpt>
      <trkpt lat="43.28236" lon="-1.6322">
        <ele>221</ele>
        <time>2020-04-07T13:29:26Z</time>
      </trkpt>
      <trkpt lat="43.28244" lon="-1.63228">
        <ele>222</ele>
        <time>2020-04-07T13:29:27Z</time>
      </trkpt>
      <trkpt lat="43.28253" lon="-1.6324">
        <ele>222</ele>
        <time>2020-04-07T13:29:30Z</time>
      </trkpt>
      <trkpt lat="43.28299" lon="-1.63322">
        <ele>217</ele>
        <time>2020-04-07T13:29:43Z</time>
      </trkpt>
      <trkpt lat="43.28304" lon="-1.63335">
        <ele>216</ele>
        <time>2020-04-07T13:29:45Z</time>
      </trkpt>
      <trkpt lat="43.28309" lon="-1.6336">
        <ele>214</ele>
        <time>2020-04-07T13:29:48Z</time>
      </trkpt>
      <trkpt lat="43.2831" lon="-1.63374">
        <ele>213</ele>
        <time>2020-04-07T13:29:50Z</time>
      </trkpt>
      <trkpt lat="43.28311" lon="-1.635">
        <ele>203</ele>
        <time>2020-04-07T13:30:06Z</time>
      </trkpt>
      <trkpt lat="43.28312" lon="-1.63517">
        <ele>202</ele>
        <time>2020-04-07T13:30:09Z</time>
      </trkpt>
      <trkpt lat="43.28318" lon="-1.6354">
        <ele>201</ele>
        <time>2020-04-07T13:30:12Z</time>
      </trkpt>
      <trkpt lat="43.28336" lon="-1.6357">
        <ele>204</ele>
        <time>2020-04-07T13:30:17Z</time>
      </trkpt>
      <trkpt lat="43.28346" lon="-1.63595">
        <ele>206</ele>
        <time>2020-04-07T13:30:20Z</time>
      </trkpt>
      <trkpt lat="43.28348" lon="-1.63612">
        <ele>207</ele>
        <time>2020-04-07T13:30:23Z</time>
      </trkpt>
      <trkpt lat="43.28349" lon="-1.63628">
        <ele>208</ele>
        <time>2020-04-07T13:30:25Z</time>
      </trkpt>
      <trkpt lat="43.28346" lon="-1.63643">
        <ele>207</ele>
        <time>2020-04-07T13:30:27Z</time>
      </trkpt>
      <trkpt lat="43.28336" lon="-1.63663">
        <ele>204</ele>
        <time>2020-04-07T13:30:30Z</time>
      </trkpt>
      <trkpt lat="43.28308" lon="-1.637">
        <ele>195</ele>
        <time>2020-04-07T13:30:37Z</time>
      </trkpt>
      <trkpt lat="43.28295" lon="-1.63726">
        <ele>191</ele>
        <time>2020-04-07T13:30:41Z</time>
      </trkpt>
      <trkpt lat="43.2829" lon="-1.63745">
        <ele>189</ele>
        <time>2020-04-07T13:30:44Z</time>
      </trkpt>
      <trkpt lat="43.28288" lon="-1.63762">
        <ele>188</ele>
        <time>2020-04-07T13:30:46Z</time>
      </trkpt>
      <trkpt lat="43.28286" lon="-1.63828">
        <ele>183</ele>
        <time>2020-04-07T13:30:54Z</time>
      </trkpt>
      <trkpt lat="43.28288" lon="-1.63847">
        <ele>182</ele>
        <time>2020-04-07T13:30:57Z</time>
      </trkpt>
      <trkpt lat="43.28295" lon="-1.63863">
        <ele>182</ele>
        <time>2020-04-07T13:30:59Z</time>
      </trkpt>
      <trkpt lat="43.28313" lon="-1.63889">
        <ele>184</ele>
        <time>2020-04-07T13:31:04Z</time>
      </trkpt>
      <trkpt lat="43.28326" lon="-1.63916">
        <ele>184</ele>
        <time>2020-04-07T13:31:08Z</time>
      </trkpt>
      <trkpt lat="43.28331" lon="-1.63937">
        <ele>181</ele>
        <time>2020-04-07T13:31:11Z</time>
      </trkpt>
      <trkpt lat="43.28337" lon="-1.63982">
        <ele>174</ele>
        <time>2020-04-07T13:31:17Z</time>
      </trkpt>
      <trkpt lat="43.28345" lon="-1.63999">
        <ele>173</ele>
        <time>2020-04-07T13:31:19Z</time>
      </trkpt>
      <trkpt lat="43.28353" lon="-1.6401">
        <ele>173</ele>
        <time>2020-04-07T13:31:21Z</time>
      </trkpt>
      <trkpt lat="43.28358" lon="-1.64015">
        <ele>173</ele>
        <time>2020-04-07T13:31:23Z</time>
      </trkpt>
      <trkpt lat="43.28373" lon="-1.64025">
        <ele>174</ele>
        <time>2020-04-07T13:31:26Z</time>
      </trkpt>
      <trkpt lat="43.28412" lon="-1.64044">
        <ele>176</ele>
        <time>2020-04-07T13:31:33Z</time>
      </trkpt>
      <trkpt lat="43.28454" lon="-1.64072">
        <ele>169</ele>
        <time>2020-04-07T13:31:41Z</time>
      </trkpt>
      <trkpt lat="43.28465" lon="-1.64077">
        <ele>167</ele>
        <time>2020-04-07T13:31:43Z</time>
      </trkpt>
      <trkpt lat="43.28475" lon="-1.6408">
        <ele>166</ele>
        <time>2020-04-07T13:31:45Z</time>
      </trkpt>
      <trkpt lat="43.28517" lon="-1.64082">
        <ele>168</ele>
        <time>2020-04-07T13:31:53Z</time>
      </trkpt>
      <trkpt lat="43.28525" lon="-1.64086">
        <ele>168</ele>
        <time>2020-04-07T13:31:54Z</time>
      </trkpt>
      <trkpt lat="43.28536" lon="-1.64093">
        <ele>169</ele>
        <time>2020-04-07T13:31:56Z</time>
      </trkpt>
      <trkpt lat="43.28562" lon="-1.64127">
        <ele>164</ele>
        <time>2020-04-07T13:32:03Z</time>
      </trkpt>
      <trkpt lat="43.28576" lon="-1.6414">
        <ele>160</ele>
        <time>2020-04-07T13:32:06Z</time>
      </trkpt>
      <trkpt lat="43.28593" lon="-1.64151">
        <ele>158</ele>
        <time>2020-04-07T13:32:09Z</time>
      </trkpt>
      <trkpt lat="43.28615" lon="-1.64161">
        <ele>158</ele>
        <time>2020-04-07T13:32:13Z</time>
      </trkpt>
      <trkpt lat="43.28629" lon="-1.6417">
        <ele>158</ele>
        <time>2020-04-07T13:32:16Z</time>
      </trkpt>
      <trkpt lat="43.28638" lon="-1.64181">
        <ele>158</ele>
        <time>2020-04-07T13:32:18Z</time>
      </trkpt>
      <trkpt lat="43.28649" lon="-1.64206">
        <ele>156</ele>
        <time>2020-04-07T13:32:22Z</time>
      </trkpt>
      <trkpt lat="43.28653" lon="-1.64222">
        <ele>154</ele>
        <time>2020-04-07T13:32:24Z</time>
      </trkpt>
      <trkpt lat="43.28653" lon="-1.64247">
        <ele>151</ele>
        <time>2020-04-07T13:32:27Z</time>
      </trkpt>
      <trkpt lat="43.2865" lon="-1.64271">
        <ele>152</ele>
        <time>2020-04-07T13:32:30Z</time>
      </trkpt>
      <trkpt lat="43.28643" lon="-1.64318">
        <ele>156</ele>
        <time>2020-04-07T13:32:37Z</time>
      </trkpt>
      <trkpt lat="43.28636" lon="-1.64343">
        <ele>157</ele>
        <time>2020-04-07T13:32:40Z</time>
      </trkpt>
      <trkpt lat="43.28587" lon="-1.64465">
        <ele>157</ele>
        <time>2020-04-07T13:32:58Z</time>
      </trkpt>
      <trkpt lat="43.2858" lon="-1.64477">
        <ele>157</ele>
        <time>2020-04-07T13:33:00Z</time>
      </trkpt>
      <trkpt lat="43.28554" lon="-1.64497">
        <ele>152</ele>
        <time>2020-04-07T13:33:05Z</time>
      </trkpt>
      <trkpt lat="43.28542" lon="-1.64503">
        <ele>148</ele>
        <time>2020-04-07T13:33:08Z</time>
      </trkpt>
      <trkpt lat="43.28532" lon="-1.64516">
        <ele>147</ele>
        <time>2020-04-07T13:33:10Z</time>
      </trkpt>
      <trkpt lat="43.28525" lon="-1.64526">
        <ele>146</ele>
        <time>2020-04-07T13:33:12Z</time>
      </trkpt>
      <trkpt lat="43.28521" lon="-1.64548">
        <ele>147</ele>
        <time>2020-04-07T13:33:15Z</time>
      </trkpt>
      <trkpt lat="43.28514" lon="-1.6457">
        <ele>148</ele>
        <time>2020-04-07T13:33:18Z</time>
      </trkpt>
      <trkpt lat="43.28499" lon="-1.64591">
        <ele>145</ele>
        <time>2020-04-07T13:33:22Z</time>
      </trkpt>
      <trkpt lat="43.28447" lon="-1.64631">
        <ele>133</ele>
        <time>2020-04-07T13:33:32Z</time>
      </trkpt>
      <trkpt lat="43.28433" lon="-1.64639">
        <ele>129</ele>
        <time>2020-04-07T13:33:35Z</time>
      </trkpt>
      <trkpt lat="43.28423" lon="-1.64654">
        <ele>128</ele>
        <time>2020-04-07T13:33:38Z</time>
      </trkpt>
      <trkpt lat="43.28416" lon="-1.64671">
        <ele>127</ele>
        <time>2020-04-07T13:33:40Z</time>
      </trkpt>
      <trkpt lat="43.28414" lon="-1.64694">
        <ele>128</ele>
        <time>2020-04-07T13:33:43Z</time>
      </trkpt>
      <trkpt lat="43.28412" lon="-1.64709">
        <ele>129</ele>
        <time>2020-04-07T13:33:45Z</time>
      </trkpt>
      <trkpt lat="43.28408" lon="-1.64723">
        <ele>129</ele>
        <time>2020-04-07T13:33:47Z</time>
      </trkpt>
      <trkpt lat="43.284" lon="-1.6474">
        <ele>128</ele>
        <time>2020-04-07T13:33:50Z</time>
      </trkpt>
      <trkpt lat="43.2837" lon="-1.64777">
        <ele>128</ele>
        <time>2020-04-07T13:33:57Z</time>
      </trkpt>
      <trkpt lat="43.28343" lon="-1.64815">
        <ele>130</ele>
        <time>2020-04-07T13:34:04Z</time>
      </trkpt>
      <trkpt lat="43.28328" lon="-1.64834">
        <ele>130</ele>
        <time>2020-04-07T13:34:07Z</time>
      </trkpt>
      <trkpt lat="43.28315" lon="-1.64845">
        <ele>128</ele>
        <time>2020-04-07T13:34:10Z</time>
      </trkpt>
      <trkpt lat="43.28289" lon="-1.64853">
        <ele>123</ele>
        <time>2020-04-07T13:34:15Z</time>
      </trkpt>
      <trkpt lat="43.28279" lon="-1.64859">
        <ele>121</ele>
        <time>2020-04-07T13:34:17Z</time>
      </trkpt>
      <trkpt lat="43.28269" lon="-1.64868">
        <ele>119</ele>
        <time>2020-04-07T13:34:19Z</time>
      </trkpt>
      <trkpt lat="43.28262" lon="-1.6488">
        <ele>117</ele>
        <time>2020-04-07T13:34:21Z</time>
      </trkpt>
      <trkpt lat="43.28257" lon="-1.64899">
        <ele>115</ele>
        <time>2020-04-07T13:34:24Z</time>
      </trkpt>
      <trkpt lat="43.28233" lon="-1.65041">
        <ele>114</ele>
        <time>2020-04-07T13:34:42Z</time>
      </trkpt>
      <trkpt lat="43.28214" lon="-1.65131">
        <ele>115</ele>
        <time>2020-04-07T13:34:55Z</time>
      </trkpt>
      <trkpt lat="43.28204" lon="-1.65164">
        <ele>115</ele>
        <time>2020-04-07T13:34:59Z</time>
      </trkpt>
      <trkpt lat="43.28185" lon="-1.65221">
        <ele>114</ele>
        <time>2020-04-07T13:35:07Z</time>
      </trkpt>
      <trkpt lat="43.28172" lon="-1.65254">
        <ele>110</ele>
        <time>2020-04-07T13:35:12Z</time>
      </trkpt>
      <trkpt lat="43.2816" lon="-1.65278">
        <ele>107</ele>
        <time>2020-04-07T13:35:16Z</time>
      </trkpt>
      <trkpt lat="43.28153" lon="-1.65302">
        <ele>105</ele>
        <time>2020-04-07T13:35:19Z</time>
      </trkpt>
      <trkpt lat="43.28147" lon="-1.65343">
        <ele>102</ele>
        <time>2020-04-07T13:35:25Z</time>
      </trkpt>
      <trkpt lat="43.28147" lon="-1.65372">
        <ele>102</ele>
        <time>2020-04-07T13:35:29Z</time>
      </trkpt>
      <trkpt lat="43.28148" lon="-1.65412">
        <ele>102</ele>
        <time>2020-04-07T13:35:34Z</time>
      </trkpt>
      <trkpt lat="43.28153" lon="-1.65448">
        <ele>101</ele>
        <time>2020-04-07T13:35:38Z</time>
      </trkpt>
      <trkpt lat="43.28168" lon="-1.65522">
        <ele>97</ele>
        <time>2020-04-07T13:35:48Z</time>
      </trkpt>
      <trkpt lat="43.28175" lon="-1.65541">
        <ele>98</ele>
        <time>2020-04-07T13:35:51Z</time>
      </trkpt>
      <trkpt lat="43.28192" lon="-1.65573">
        <ele>100</ele>
        <time>2020-04-07T13:35:56Z</time>
      </trkpt>
      <trkpt lat="43.28209" lon="-1.65601">
        <ele>101</ele>
        <time>2020-04-07T13:36:01Z</time>
      </trkpt>
      <trkpt lat="43.28217" lon="-1.65618">
        <ele>101</ele>
        <time>2020-04-07T13:36:04Z</time>
      </trkpt>
      <trkpt lat="43.28237" lon="-1.65673">
        <ele>96</ele>
        <time>2020-04-07T13:36:12Z</time>
      </trkpt>
      <trkpt lat="43.28241" lon="-1.65684">
        <ele>96</ele>
        <time>2020-04-07T13:36:13Z</time>
      </trkpt>
      <trkpt lat="43.28244" lon="-1.65691">
        <ele>96</ele>
        <time>2020-04-07T13:36:14Z</time>
      </trkpt>
      <trkpt lat="43.28253" lon="-1.65724">
        <ele>96</ele>
        <time>2020-04-07T13:36:19Z</time>
      </trkpt>
      <trkpt lat="43.28253" lon="-1.6574">
        <ele>95</ele>
        <time>2020-04-07T13:36:21Z</time>
      </trkpt>
      <trkpt lat="43.2825" lon="-1.65787">
        <ele>96</ele>
        <time>2020-04-07T13:36:27Z</time>
      </trkpt>
      <trkpt lat="43.28247" lon="-1.65809">
        <ele>97</ele>
        <time>2020-04-07T13:36:30Z</time>
      </trkpt>
      <trkpt lat="43.28233" lon="-1.65867">
        <ele>96</ele>
        <time>2020-04-07T13:36:38Z</time>
      </trkpt>
      <trkpt lat="43.28231" lon="-1.65878">
        <ele>96</ele>
        <time>2020-04-07T13:36:39Z</time>
      </trkpt>
      <trkpt lat="43.28228" lon="-1.65901">
        <ele>95</ele>
        <time>2020-04-07T13:36:42Z</time>
      </trkpt>
      <trkpt lat="43.28224" lon="-1.6593">
        <ele>92</ele>
        <time>2020-04-07T13:36:46Z</time>
      </trkpt>
      <trkpt lat="43.28224" lon="-1.65967">
        <ele>89</ele>
        <time>2020-04-07T13:36:51Z</time>
      </trkpt>
      <trkpt lat="43.28226" lon="-1.65984">
        <ele>88</ele>
        <time>2020-04-07T13:36:53Z</time>
      </trkpt>
      <trkpt lat="43.28232" lon="-1.65999">
        <ele>87</ele>
        <time>2020-04-07T13:36:55Z</time>
      </trkpt>
      <trkpt lat="43.2824" lon="-1.66008">
        <ele>87</ele>
        <time>2020-04-07T13:36:57Z</time>
      </trkpt>
      <trkpt lat="43.28244" lon="-1.66009">
        <ele>88</ele>
        <time>2020-04-07T13:36:58Z</time>
      </trkpt>
      <trkpt lat="43.2828" lon="-1.6602">
        <ele>90</ele>
        <time>2020-04-07T13:37:04Z</time>
      </trkpt>
      <trkpt lat="43.28284" lon="-1.66023">
        <ele>90</ele>
        <time>2020-04-07T13:37:05Z</time>
      </trkpt>
      <trkpt lat="43.28287" lon="-1.6603">
        <ele>90</ele>
        <time>2020-04-07T13:37:06Z</time>
      </trkpt>
      <trkpt lat="43.28288" lon="-1.66033">
        <ele>90</ele>
        <time>2020-04-07T13:37:07Z</time>
      </trkpt>
      <trkpt lat="43.2829" lon="-1.66037">
        <ele>90</ele>
        <time>2020-04-07T13:37:07Z</time>
      </trkpt>
      <trkpt lat="43.28294" lon="-1.66045">
        <ele>90</ele>
        <time>2020-04-07T13:37:09Z</time>
      </trkpt>
      <trkpt lat="43.28294" lon="-1.6606">
        <ele>90</ele>
        <time>2020-04-07T13:37:11Z</time>
      </trkpt>
      <trkpt lat="43.28291" lon="-1.66076">
        <ele>90</ele>
        <time>2020-04-07T13:37:13Z</time>
      </trkpt>
      <trkpt lat="43.28275" lon="-1.66116">
        <ele>91</ele>
        <time>2020-04-07T13:37:19Z</time>
      </trkpt>
      <trkpt lat="43.2827" lon="-1.66134">
        <ele>92</ele>
        <time>2020-04-07T13:37:21Z</time>
      </trkpt>
      <trkpt lat="43.28261" lon="-1.66151">
        <ele>91</ele>
        <time>2020-04-07T13:37:24Z</time>
      </trkpt>
      <trkpt lat="43.28252" lon="-1.66178">
        <ele>90</ele>
        <time>2020-04-07T13:37:28Z</time>
      </trkpt>
      <trkpt lat="43.28249" lon="-1.66199">
        <ele>90</ele>
        <time>2020-04-07T13:37:30Z</time>
      </trkpt>
      <trkpt lat="43.28243" lon="-1.66317">
        <ele>96</ele>
        <time>2020-04-07T13:37:46Z</time>
      </trkpt>
      <trkpt lat="43.28239" lon="-1.66345">
        <ele>96</ele>
        <time>2020-04-07T13:37:50Z</time>
      </trkpt>
      <trkpt lat="43.2821" lon="-1.66451">
        <ele>85</ele>
        <time>2020-04-07T13:38:04Z</time>
      </trkpt>
      <trkpt lat="43.28207" lon="-1.66474">
        <ele>84</ele>
        <time>2020-04-07T13:38:07Z</time>
      </trkpt>
      <trkpt lat="43.28207" lon="-1.66499">
        <ele>83</ele>
        <time>2020-04-07T13:38:10Z</time>
      </trkpt>
      <trkpt lat="43.28209" lon="-1.66533">
        <ele>83</ele>
        <time>2020-04-07T13:38:15Z</time>
      </trkpt>
      <trkpt lat="43.28214" lon="-1.66578">
        <ele>83</ele>
        <time>2020-04-07T13:38:21Z</time>
      </trkpt>
      <trkpt lat="43.28221" lon="-1.66745">
        <ele>75</ele>
        <time>2020-04-07T13:38:42Z</time>
      </trkpt>
      <trkpt lat="43.28232" lon="-1.66796">
        <ele>74</ele>
        <time>2020-04-07T13:38:49Z</time>
      </trkpt>
      <trkpt lat="43.28257" lon="-1.66886">
        <ele>72</ele>
        <time>2020-04-07T13:39:02Z</time>
      </trkpt>
      <trkpt lat="43.28268" lon="-1.66933">
        <ele>72</ele>
        <time>2020-04-07T13:39:08Z</time>
      </trkpt>
      <trkpt lat="43.28272" lon="-1.66971">
        <ele>71</ele>
        <time>2020-04-07T13:39:13Z</time>
      </trkpt>
      <trkpt lat="43.28272" lon="-1.66999">
        <ele>69</ele>
        <time>2020-04-07T13:39:17Z</time>
      </trkpt>
      <trkpt lat="43.2827" lon="-1.67021">
        <ele>68</ele>
        <time>2020-04-07T13:39:20Z</time>
      </trkpt>
      <trkpt lat="43.28263" lon="-1.67079">
        <ele>67</ele>
        <time>2020-04-07T13:39:27Z</time>
      </trkpt>
      <trkpt lat="43.28263" lon="-1.67103">
        <ele>67</ele>
        <time>2020-04-07T13:39:30Z</time>
      </trkpt>
      <trkpt lat="43.28266" lon="-1.67138">
        <ele>67</ele>
        <time>2020-04-07T13:39:35Z</time>
      </trkpt>
      <trkpt lat="43.28273" lon="-1.6719">
        <ele>68</ele>
        <time>2020-04-07T13:39:42Z</time>
      </trkpt>
      <trkpt lat="43.28274" lon="-1.67233">
        <ele>66</ele>
        <time>2020-04-07T13:39:47Z</time>
      </trkpt>
      <trkpt lat="43.28266" lon="-1.67325">
        <ele>65</ele>
        <time>2020-04-07T13:39:59Z</time>
      </trkpt>
      <trkpt lat="43.28262" lon="-1.6735">
        <ele>65</ele>
        <time>2020-04-07T13:40:03Z</time>
      </trkpt>
      <trkpt lat="43.2825" lon="-1.67399">
        <ele>63</ele>
        <time>2020-04-07T13:40:09Z</time>
      </trkpt>
      <trkpt lat="43.28225" lon="-1.6744">
        <ele>60</ele>
        <time>2020-04-07T13:40:16Z</time>
      </trkpt>
      <trkpt lat="43.28222" lon="-1.67451">
        <ele>59</ele>
        <time>2020-04-07T13:40:18Z</time>
      </trkpt>
      <trkpt lat="43.28218" lon="-1.67476">
        <ele>59</ele>
        <time>2020-04-07T13:40:21Z</time>
      </trkpt>
      <trkpt lat="43.28217" lon="-1.67507">
        <ele>59</ele>
        <time>2020-04-07T13:40:25Z</time>
      </trkpt>
      <trkpt lat="43.28213" lon="-1.67523">
        <ele>57</ele>
        <time>2020-04-07T13:40:27Z</time>
      </trkpt>
      <trkpt lat="43.28206" lon="-1.67536">
        <ele>56</ele>
        <time>2020-04-07T13:40:29Z</time>
      </trkpt>
      <trkpt lat="43.28193" lon="-1.67551">
        <ele>53</ele>
        <time>2020-04-07T13:40:32Z</time>
      </trkpt>
      <trkpt lat="43.28185" lon="-1.67565">
        <ele>51</ele>
        <time>2020-04-07T13:40:35Z</time>
      </trkpt>
      <trkpt lat="43.28181" lon="-1.6758">
        <ele>50</ele>
        <time>2020-04-07T13:40:37Z</time>
      </trkpt>
      <trkpt lat="43.28181" lon="-1.67596">
        <ele>50</ele>
        <time>2020-04-07T13:40:39Z</time>
      </trkpt>
      <trkpt lat="43.28187" lon="-1.67623">
        <ele>50</ele>
        <time>2020-04-07T13:40:43Z</time>
      </trkpt>
      <trkpt lat="43.28189" lon="-1.67645">
        <ele>50</ele>
        <time>2020-04-07T13:40:45Z</time>
      </trkpt>
      <trkpt lat="43.28183" lon="-1.67686">
        <ele>48</ele>
        <time>2020-04-07T13:40:51Z</time>
      </trkpt>
      <trkpt lat="43.28174" lon="-1.67713">
        <ele>46</ele>
        <time>2020-04-07T13:40:55Z</time>
      </trkpt>
      <trkpt lat="43.28169" lon="-1.67753">
        <ele>44</ele>
        <time>2020-04-07T13:41:00Z</time>
      </trkpt>
      <trkpt lat="43.28181" lon="-1.67835">
        <ele>44</ele>
        <time>2020-04-07T13:41:11Z</time>
      </trkpt>
      <trkpt lat="43.28227" lon="-1.67846">
        <ele>45</ele>
        <time>2020-04-07T13:41:19Z</time>
      </trkpt>
      <trkpt lat="43.28233" lon="-1.67857">
        <ele>45</ele>
        <time>2020-04-07T13:41:21Z</time>
      </trkpt>
      <trkpt lat="43.28273" lon="-1.67872">
        <ele>46</ele>
        <time>2020-04-07T13:41:28Z</time>
      </trkpt>
      <trkpt lat="43.2828" lon="-1.67877">
        <ele>46</ele>
        <time>2020-04-07T13:41:30Z</time>
      </trkpt>
      <trkpt lat="43.28281" lon="-1.67877">
        <ele>46</ele>
        <time>2020-04-07T13:41:30Z</time>
      </trkpt>
      <trkpt lat="43.28293" lon="-1.67884">
        <ele>47</ele>
        <time>2020-04-07T13:41:32Z</time>
      </trkpt>
      <trkpt lat="43.28354" lon="-1.67921">
        <ele>54</ele>
        <time>2020-04-07T13:41:44Z</time>
      </trkpt>
      <trkpt lat="43.28439" lon="-1.67957">
        <ele>71</ele>
        <time>2020-04-07T13:42:00Z</time>
      </trkpt>
      <trkpt lat="43.28451" lon="-1.6796">
        <ele>72</ele>
        <time>2020-04-07T13:42:02Z</time>
      </trkpt>
      <trkpt lat="43.28477" lon="-1.67969">
        <ele>76</ele>
        <time>2020-04-07T13:42:07Z</time>
      </trkpt>
      <trkpt lat="43.28536" lon="-1.67964">
        <ele>72</ele>
        <time>2020-04-07T13:42:17Z</time>
      </trkpt>
      <trkpt lat="43.28557" lon="-1.6795">
        <ele>67</ele>
        <time>2020-04-07T13:42:21Z</time>
      </trkpt>
      <trkpt lat="43.28568" lon="-1.67944">
        <ele>65</ele>
        <time>2020-04-07T13:42:24Z</time>
      </trkpt>
      <trkpt lat="43.28579" lon="-1.67945">
        <ele>65</ele>
        <time>2020-04-07T13:42:26Z</time>
      </trkpt>
      <trkpt lat="43.28587" lon="-1.6795">
        <ele>66</ele>
        <time>2020-04-07T13:42:27Z</time>
      </trkpt>
      <trkpt lat="43.28629" lon="-1.68004">
        <ele>74</ele>
        <time>2020-04-07T13:42:37Z</time>
      </trkpt>
      <trkpt lat="43.28651" lon="-1.68019">
        <ele>78</ele>
        <time>2020-04-07T13:42:42Z</time>
      </trkpt>
      <trkpt lat="43.28667" lon="-1.68022">
        <ele>78</ele>
        <time>2020-04-07T13:42:45Z</time>
      </trkpt>
      <trkpt lat="43.28709" lon="-1.68004">
        <ele>77</ele>
        <time>2020-04-07T13:42:52Z</time>
      </trkpt>
      <trkpt lat="43.28739" lon="-1.67998">
        <ele>79</ele>
        <time>2020-04-07T13:42:58Z</time>
      </trkpt>
      <trkpt lat="43.28758" lon="-1.67996">
        <ele>81</ele>
        <time>2020-04-07T13:43:01Z</time>
      </trkpt>
      <trkpt lat="43.28773" lon="-1.67987">
        <ele>81</ele>
        <time>2020-04-07T13:43:04Z</time>
      </trkpt>
      <trkpt lat="43.2882" lon="-1.67997">
        <ele>84</ele>
        <time>2020-04-07T13:43:13Z</time>
      </trkpt>
      <trkpt lat="43.28841" lon="-1.68008">
        <ele>87</ele>
        <time>2020-04-07T13:43:17Z</time>
      </trkpt>
      <trkpt lat="43.28871" lon="-1.68027">
        <ele>92</ele>
        <time>2020-04-07T13:43:22Z</time>
      </trkpt>
      <trkpt lat="43.28898" lon="-1.68034">
        <ele>92</ele>
        <time>2020-04-07T13:43:27Z</time>
      </trkpt>
      <trkpt lat="43.28952" lon="-1.68037">
        <ele>89</ele>
        <time>2020-04-07T13:43:37Z</time>
      </trkpt>
      <trkpt lat="43.28974" lon="-1.68046">
        <ele>89</ele>
        <time>2020-04-07T13:43:41Z</time>
      </trkpt>
      <trkpt lat="43.28988" lon="-1.68062">
        <ele>91</ele>
        <time>2020-04-07T13:43:44Z</time>
      </trkpt>
      <trkpt lat="43.29003" lon="-1.68103">
        <ele>98</ele>
        <time>2020-04-07T13:43:50Z</time>
      </trkpt>
      <trkpt lat="43.29042" lon="-1.68245">
        <ele>101</ele>
        <time>2020-04-07T13:44:10Z</time>
      </trkpt>
      <trkpt lat="43.29045" lon="-1.68284">
        <ele>103</ele>
        <time>2020-04-07T13:44:15Z</time>
      </trkpt>
      <trkpt lat="43.29021" lon="-1.68351">
        <ele>119</ele>
        <time>2020-04-07T13:44:25Z</time>
      </trkpt>
      <trkpt lat="43.29015" lon="-1.68376">
        <ele>123</ele>
        <time>2020-04-07T13:44:28Z</time>
      </trkpt>
      <trkpt lat="43.29024" lon="-1.68385">
        <ele>120</ele>
        <time>2020-04-07T13:44:30Z</time>
      </trkpt>
      <trkpt lat="43.29062" lon="-1.68399">
        <ele>109</ele>
        <time>2020-04-07T13:44:37Z</time>
      </trkpt>
      <trkpt lat="43.29095" lon="-1.68438">
        <ele>110</ele>
        <time>2020-04-07T13:44:45Z</time>
      </trkpt>
      <trkpt lat="43.29113" lon="-1.68464">
        <ele>116</ele>
        <time>2020-04-07T13:44:49Z</time>
      </trkpt>
      <trkpt lat="43.29135" lon="-1.6848">
        <ele>117</ele>
        <time>2020-04-07T13:44:54Z</time>
      </trkpt>
      <trkpt lat="43.29159" lon="-1.68483">
        <ele>113</ele>
        <time>2020-04-07T13:44:58Z</time>
      </trkpt>
      <trkpt lat="43.2918" lon="-1.68492">
        <ele>111</ele>
        <time>2020-04-07T13:45:02Z</time>
      </trkpt>
      <trkpt lat="43.29188" lon="-1.68511">
        <ele>111</ele>
        <time>2020-04-07T13:45:05Z</time>
      </trkpt>
      <trkpt lat="43.29179" lon="-1.68537">
        <ele>117</ele>
        <time>2020-04-07T13:45:09Z</time>
      </trkpt>
      <trkpt lat="43.29163" lon="-1.68557">
        <ele>123</ele>
        <time>2020-04-07T13:45:12Z</time>
      </trkpt>
      <trkpt lat="43.29136" lon="-1.68577">
        <ele>132</ele>
        <time>2020-04-07T13:45:18Z</time>
      </trkpt>
      <trkpt lat="43.29128" lon="-1.68594">
        <ele>136</ele>
        <time>2020-04-07T13:45:21Z</time>
      </trkpt>
      <trkpt lat="43.2912" lon="-1.68624">
        <ele>142</ele>
        <time>2020-04-07T13:45:25Z</time>
      </trkpt>
      <trkpt lat="43.29124" lon="-1.68657">
        <ele>145</ele>
        <time>2020-04-07T13:45:29Z</time>
      </trkpt>
      <trkpt lat="43.29131" lon="-1.68677">
        <ele>146</ele>
        <time>2020-04-07T13:45:32Z</time>
      </trkpt>
      <trkpt lat="43.29145" lon="-1.68677">
        <ele>142</ele>
        <time>2020-04-07T13:45:34Z</time>
      </trkpt>
      <trkpt lat="43.29167" lon="-1.68669">
        <ele>134</ele>
        <time>2020-04-07T13:45:38Z</time>
      </trkpt>
      <trkpt lat="43.29171" lon="-1.68683">
        <ele>137</ele>
        <time>2020-04-07T13:45:40Z</time>
      </trkpt>
      <trkpt lat="43.29151" lon="-1.68707">
        <ele>146</ele>
        <time>2020-04-07T13:45:45Z</time>
      </trkpt>
      <trkpt lat="43.29129" lon="-1.68706">
        <ele>152</ele>
        <time>2020-04-07T13:45:49Z</time>
      </trkpt>
      <trkpt lat="43.29117" lon="-1.68687">
        <ele>151</ele>
        <time>2020-04-07T13:45:52Z</time>
      </trkpt>
      <trkpt lat="43.29094" lon="-1.68631">
        <ele>150</ele>
        <time>2020-04-07T13:46:01Z</time>
      </trkpt>
      <trkpt lat="43.29092" lon="-1.68597">
        <ele>147</ele>
        <time>2020-04-07T13:46:05Z</time>
      </trkpt>
      <trkpt lat="43.29104" lon="-1.68572">
        <ele>140</ele>
        <time>2020-04-07T13:46:09Z</time>
      </trkpt>
      <trkpt lat="43.29109" lon="-1.68539">
        <ele>134</ele>
        <time>2020-04-07T13:46:13Z</time>
      </trkpt>
      <trkpt lat="43.29093" lon="-1.6853">
        <ele>136</ele>
        <time>2020-04-07T13:46:16Z</time>
      </trkpt>
      <trkpt lat="43.29075" lon="-1.68516">
        <ele>137</ele>
        <time>2020-04-07T13:46:20Z</time>
      </trkpt>
      <trkpt lat="43.29031" lon="-1.68516">
        <ele>145</ele>
        <time>2020-04-07T13:46:28Z</time>
      </trkpt>
      <trkpt lat="43.28986" lon="-1.6853">
        <ele>159</ele>
        <time>2020-04-07T13:46:36Z</time>
      </trkpt>
      <trkpt lat="43.28988" lon="-1.68549">
        <ele>162</ele>
        <time>2020-04-07T13:46:39Z</time>
      </trkpt>
      <trkpt lat="43.29003" lon="-1.68561">
        <ele>159</ele>
        <time>2020-04-07T13:46:42Z</time>
      </trkpt>
      <trkpt lat="43.29021" lon="-1.68553">
        <ele>154</ele>
        <time>2020-04-07T13:46:45Z</time>
      </trkpt>
      <trkpt lat="43.29042" lon="-1.68537">
        <ele>147</ele>
        <time>2020-04-07T13:46:49Z</time>
      </trkpt>
      <trkpt lat="43.29063" lon="-1.68544">
        <ele>145</ele>
        <time>2020-04-07T13:46:53Z</time>
      </trkpt>
      <trkpt lat="43.29065" lon="-1.68575">
        <ele>150</ele>
        <time>2020-04-07T13:46:57Z</time>
      </trkpt>
      <trkpt lat="43.29059" lon="-1.68606">
        <ele>156</ele>
        <time>2020-04-07T13:47:01Z</time>
      </trkpt>
      <trkpt lat="43.29045" lon="-1.68656">
        <ele>167</ele>
        <time>2020-04-07T13:47:08Z</time>
      </trkpt>
      <trkpt lat="43.29056" lon="-1.68669">
        <ele>166</ele>
        <time>2020-04-07T13:47:11Z</time>
      </trkpt>
      <trkpt lat="43.29074" lon="-1.68696">
        <ele>164</ele>
        <time>2020-04-07T13:47:16Z</time>
      </trkpt>
      <trkpt lat="43.29081" lon="-1.68728">
        <ele>167</ele>
        <time>2020-04-07T13:47:20Z</time>
      </trkpt>
      <trkpt lat="43.29071" lon="-1.68754">
        <ele>175</ele>
        <time>2020-04-07T13:47:24Z</time>
      </trkpt>
      <trkpt lat="43.2908" lon="-1.6878">
        <ele>177</ele>
        <time>2020-04-07T13:47:27Z</time>
      </trkpt>
      <trkpt lat="43.29086" lon="-1.68791">
        <ele>177</ele>
        <time>2020-04-07T13:47:29Z</time>
      </trkpt>
      <trkpt lat="43.29099" lon="-1.68795">
        <ele>177</ele>
        <time>2020-04-07T13:47:32Z</time>
      </trkpt>
      <trkpt lat="43.29114" lon="-1.68795">
        <ele>174</ele>
        <time>2020-04-07T13:47:34Z</time>
      </trkpt>
      <trkpt lat="43.29166" lon="-1.68788">
        <ele>165</ele>
        <time>2020-04-07T13:47:44Z</time>
      </trkpt>
      <trkpt lat="43.29189" lon="-1.68796">
        <ele>162</ele>
        <time>2020-04-07T13:47:48Z</time>
      </trkpt>
      <trkpt lat="43.29205" lon="-1.68826">
        <ele>166</ele>
        <time>2020-04-07T13:47:53Z</time>
      </trkpt>
      <trkpt lat="43.29209" lon="-1.68874">
        <ele>177</ele>
        <time>2020-04-07T13:47:59Z</time>
      </trkpt>
      <trkpt lat="43.29228" lon="-1.68895">
        <ele>176</ele>
        <time>2020-04-07T13:48:03Z</time>
      </trkpt>
      <trkpt lat="43.2925" lon="-1.68915">
        <ele>174</ele>
        <time>2020-04-07T13:48:08Z</time>
      </trkpt>
      <trkpt lat="43.29272" lon="-1.68987">
        <ele>188</ele>
        <time>2020-04-07T13:48:18Z</time>
      </trkpt>
      <trkpt lat="43.29288" lon="-1.68993">
        <ele>187</ele>
        <time>2020-04-07T13:48:21Z</time>
      </trkpt>
      <trkpt lat="43.29306" lon="-1.6899">
        <ele>183</ele>
        <time>2020-04-07T13:48:24Z</time>
      </trkpt>
      <trkpt lat="43.29326" lon="-1.68974">
        <ele>175</ele>
        <time>2020-04-07T13:48:28Z</time>
      </trkpt>
      <trkpt lat="43.29345" lon="-1.68974">
        <ele>171</ele>
        <time>2020-04-07T13:48:32Z</time>
      </trkpt>
      <trkpt lat="43.29354" lon="-1.68998">
        <ele>177</ele>
        <time>2020-04-07T13:48:35Z</time>
      </trkpt>
      <trkpt lat="43.29359" lon="-1.6905">
        <ele>192</ele>
        <time>2020-04-07T13:48:42Z</time>
      </trkpt>
      <trkpt lat="43.2937" lon="-1.69063">
        <ele>195</ele>
        <time>2020-04-07T13:48:45Z</time>
      </trkpt>
      <trkpt lat="43.29394" lon="-1.69064">
        <ele>192</ele>
        <time>2020-04-07T13:48:49Z</time>
      </trkpt>
      <trkpt lat="43.29433" lon="-1.6911">
        <ele>202</ele>
        <time>2020-04-07T13:48:58Z</time>
      </trkpt>
      <trkpt lat="43.29449" lon="-1.69104">
        <ele>199</ele>
        <time>2020-04-07T13:49:01Z</time>
      </trkpt>
      <trkpt lat="43.29459" lon="-1.69085">
        <ele>194</ele>
        <time>2020-04-07T13:49:04Z</time>
      </trkpt>
      <trkpt lat="43.29472" lon="-1.69071">
        <ele>189</ele>
        <time>2020-04-07T13:49:07Z</time>
      </trkpt>
      <trkpt lat="43.29482" lon="-1.6908">
        <ele>192</ele>
        <time>2020-04-07T13:49:09Z</time>
      </trkpt>
      <trkpt lat="43.29498" lon="-1.69104">
        <ele>198</ele>
        <time>2020-04-07T13:49:13Z</time>
      </trkpt>
      <trkpt lat="43.29533" lon="-1.69128">
        <ele>209</ele>
        <time>2020-04-07T13:49:20Z</time>
      </trkpt>
      <trkpt lat="43.29548" lon="-1.69128">
        <ele>211</ele>
        <time>2020-04-07T13:49:23Z</time>
      </trkpt>
      <trkpt lat="43.29558" lon="-1.69116">
        <ele>211</ele>
        <time>2020-04-07T13:49:25Z</time>
      </trkpt>
      <trkpt lat="43.29562" lon="-1.69053">
        <ele>198</ele>
        <time>2020-04-07T13:49:33Z</time>
      </trkpt>
      <trkpt lat="43.29585" lon="-1.69016">
        <ele>195</ele>
        <time>2020-04-07T13:49:40Z</time>
      </trkpt>
      <trkpt lat="43.29631" lon="-1.68998">
        <ele>201</ele>
        <time>2020-04-07T13:49:48Z</time>
      </trkpt>
      <trkpt lat="43.29669" lon="-1.68993">
        <ele>208</ele>
        <time>2020-04-07T13:49:55Z</time>
      </trkpt>
      <trkpt lat="43.29682" lon="-1.68967">
        <ele>205</ele>
        <time>2020-04-07T13:49:59Z</time>
      </trkpt>
      <trkpt lat="43.29697" lon="-1.68946">
        <ele>202</ele>
        <time>2020-04-07T13:50:03Z</time>
      </trkpt>
      <trkpt lat="43.29754" lon="-1.68949">
        <ele>208</ele>
        <time>2020-04-07T13:50:13Z</time>
      </trkpt>
      <trkpt lat="43.29814" lon="-1.68964">
        <ele>217</ele>
        <time>2020-04-07T13:50:24Z</time>
      </trkpt>
      <trkpt lat="43.29829" lon="-1.68963">
        <ele>218</ele>
        <time>2020-04-07T13:50:27Z</time>
      </trkpt>
      <trkpt lat="43.29841" lon="-1.68957">
        <ele>217</ele>
        <time>2020-04-07T13:50:29Z</time>
      </trkpt>
      <trkpt lat="43.29855" lon="-1.68946">
        <ele>215</ele>
        <time>2020-04-07T13:50:32Z</time>
      </trkpt>
      <trkpt lat="43.29862" lon="-1.68944">
        <ele>214</ele>
        <time>2020-04-07T13:50:33Z</time>
      </trkpt>
      <trkpt lat="43.29868" lon="-1.68945">
        <ele>215</ele>
        <time>2020-04-07T13:50:34Z</time>
      </trkpt>
      <trkpt lat="43.29895" lon="-1.6897">
        <ele>222</ele>
        <time>2020-04-07T13:50:40Z</time>
      </trkpt>
      <trkpt lat="43.29933" lon="-1.68987">
        <ele>228</ele>
        <time>2020-04-07T13:50:47Z</time>
      </trkpt>
      <trkpt lat="43.2994" lon="-1.68994">
        <ele>230</ele>
        <time>2020-04-07T13:50:49Z</time>
      </trkpt>
      <trkpt lat="43.29951" lon="-1.69009">
        <ele>234</ele>
        <time>2020-04-07T13:50:51Z</time>
      </trkpt>
      <trkpt lat="43.2996" lon="-1.69027">
        <ele>241</ele>
        <time>2020-04-07T13:50:54Z</time>
      </trkpt>
      <trkpt lat="43.29965" lon="-1.69035">
        <ele>243</ele>
        <time>2020-04-07T13:50:55Z</time>
      </trkpt>
      <trkpt lat="43.29969" lon="-1.69038">
        <ele>244</ele>
        <time>2020-04-07T13:50:56Z</time>
      </trkpt>
      <trkpt lat="43.29977" lon="-1.69037">
        <ele>244</ele>
        <time>2020-04-07T13:50:58Z</time>
      </trkpt>
      <trkpt lat="43.29983" lon="-1.69033">
        <ele>242</ele>
        <time>2020-04-07T13:50:59Z</time>
      </trkpt>
      <trkpt lat="43.30014" lon="-1.6897">
        <ele>229</ele>
        <time>2020-04-07T13:51:09Z</time>
      </trkpt>
      <trkpt lat="43.30032" lon="-1.68943">
        <ele>227</ele>
        <time>2020-04-07T13:51:13Z</time>
      </trkpt>
      <trkpt lat="43.30045" lon="-1.68931">
        <ele>227</ele>
        <time>2020-04-07T13:51:16Z</time>
      </trkpt>
      <trkpt lat="43.3006" lon="-1.68924">
        <ele>228</ele>
        <time>2020-04-07T13:51:19Z</time>
      </trkpt>
      <trkpt lat="43.30083" lon="-1.68922">
        <ele>231</ele>
        <time>2020-04-07T13:51:23Z</time>
      </trkpt>
      <trkpt lat="43.30106" lon="-1.68926">
        <ele>235</ele>
        <time>2020-04-07T13:51:27Z</time>
      </trkpt>
      <trkpt lat="43.30117" lon="-1.68926">
        <ele>236</ele>
        <time>2020-04-07T13:51:29Z</time>
      </trkpt>
      <trkpt lat="43.30163" lon="-1.68919">
        <ele>239</ele>
        <time>2020-04-07T13:51:37Z</time>
      </trkpt>
      <trkpt lat="43.30211" lon="-1.6894">
        <ele>251</ele>
        <time>2020-04-07T13:51:46Z</time>
      </trkpt>
      <trkpt lat="43.30227" lon="-1.68945">
        <ele>254</ele>
        <time>2020-04-07T13:51:49Z</time>
      </trkpt>
      <trkpt lat="43.30235" lon="-1.68946">
        <ele>255</ele>
        <time>2020-04-07T13:51:51Z</time>
      </trkpt>
      <trkpt lat="43.30282" lon="-1.68943">
        <ele>255</ele>
        <time>2020-04-07T13:51:59Z</time>
      </trkpt>
      <trkpt lat="43.30292" lon="-1.68946">
        <ele>256</ele>
        <time>2020-04-07T13:52:01Z</time>
      </trkpt>
      <trkpt lat="43.30332" lon="-1.68969">
        <ele>266</ele>
        <time>2020-04-07T13:52:09Z</time>
      </trkpt>
      <trkpt lat="43.3034" lon="-1.68971">
        <ele>267</ele>
        <time>2020-04-07T13:52:10Z</time>
      </trkpt>
      <trkpt lat="43.30349" lon="-1.68969">
        <ele>266</ele>
        <time>2020-04-07T13:52:12Z</time>
      </trkpt>
      <trkpt lat="43.30394" lon="-1.68956">
        <ele>261</ele>
        <time>2020-04-07T13:52:20Z</time>
      </trkpt>
      <trkpt lat="43.30404" lon="-1.68951">
        <ele>259</ele>
        <time>2020-04-07T13:52:22Z</time>
      </trkpt>
      <trkpt lat="43.30412" lon="-1.68944">
        <ele>257</ele>
        <time>2020-04-07T13:52:24Z</time>
      </trkpt>
      <trkpt lat="43.30428" lon="-1.68922">
        <ele>251</ele>
        <time>2020-04-07T13:52:28Z</time>
      </trkpt>
      <trkpt lat="43.30436" lon="-1.68915">
        <ele>250</ele>
        <time>2020-04-07T13:52:29Z</time>
      </trkpt>
      <trkpt lat="43.30473" lon="-1.68905">
        <ele>254</ele>
        <time>2020-04-07T13:52:36Z</time>
      </trkpt>
      <trkpt lat="43.30483" lon="-1.68898">
        <ele>254</ele>
        <time>2020-04-07T13:52:38Z</time>
      </trkpt>
      <trkpt lat="43.30516" lon="-1.68864">
        <ele>249</ele>
        <time>2020-04-07T13:52:45Z</time>
      </trkpt>
      <trkpt lat="43.30522" lon="-1.68862">
        <ele>248</ele>
        <time>2020-04-07T13:52:46Z</time>
      </trkpt>
      <trkpt lat="43.30529" lon="-1.68862">
        <ele>248</ele>
        <time>2020-04-07T13:52:48Z</time>
      </trkpt>
      <trkpt lat="43.30535" lon="-1.68868">
        <ele>250</ele>
        <time>2020-04-07T13:52:49Z</time>
      </trkpt>
      <trkpt lat="43.30564" lon="-1.68907">
        <ele>259</ele>
        <time>2020-04-07T13:52:56Z</time>
      </trkpt>
      <trkpt lat="43.30583" lon="-1.68966">
        <ele>272</ele>
        <time>2020-04-07T13:53:05Z</time>
      </trkpt>
      <trkpt lat="43.30594" lon="-1.68989">
        <ele>276</ele>
        <time>2020-04-07T13:53:08Z</time>
      </trkpt>
      <trkpt lat="43.306" lon="-1.69019">
        <ele>283</ele>
        <time>2020-04-07T13:53:12Z</time>
      </trkpt>
      <trkpt lat="43.30603" lon="-1.69025">
        <ele>285</ele>
        <time>2020-04-07T13:53:13Z</time>
      </trkpt>
      <trkpt lat="43.30606" lon="-1.69025">
        <ele>284</ele>
        <time>2020-04-07T13:53:14Z</time>
      </trkpt>
      <trkpt lat="43.30609" lon="-1.69025">
        <ele>284</ele>
        <time>2020-04-07T13:53:14Z</time>
      </trkpt>
      <trkpt lat="43.30613" lon="-1.69021">
        <ele>283</ele>
        <time>2020-04-07T13:53:15Z</time>
      </trkpt>
      <trkpt lat="43.3062" lon="-1.69009">
        <ele>280</ele>
        <time>2020-04-07T13:53:17Z</time>
      </trkpt>
      <trkpt lat="43.30632" lon="-1.68978">
        <ele>273</ele>
        <time>2020-04-07T13:53:22Z</time>
      </trkpt>
      <trkpt lat="43.30652" lon="-1.6895">
        <ele>267</ele>
        <time>2020-04-07T13:53:27Z</time>
      </trkpt>
      <trkpt lat="43.30669" lon="-1.68937">
        <ele>264</ele>
        <time>2020-04-07T13:53:30Z</time>
      </trkpt>
      <trkpt lat="43.30678" lon="-1.68933">
        <ele>265</ele>
        <time>2020-04-07T13:53:32Z</time>
      </trkpt>
      <trkpt lat="43.30697" lon="-1.68934">
        <ele>267</ele>
        <time>2020-04-07T13:53:35Z</time>
      </trkpt>
      <trkpt lat="43.30732" lon="-1.68948">
        <ele>274</ele>
        <time>2020-04-07T13:53:42Z</time>
      </trkpt>
      <trkpt lat="43.3075" lon="-1.68958">
        <ele>278</ele>
        <time>2020-04-07T13:53:45Z</time>
      </trkpt>
      <trkpt lat="43.30772" lon="-1.68974">
        <ele>284</ele>
        <time>2020-04-07T13:53:50Z</time>
      </trkpt>
      <trkpt lat="43.3078" lon="-1.68978">
        <ele>285</ele>
        <time>2020-04-07T13:53:51Z</time>
      </trkpt>
      <trkpt lat="43.30786" lon="-1.68976">
        <ele>285</ele>
        <time>2020-04-07T13:53:52Z</time>
      </trkpt>
      <trkpt lat="43.30792" lon="-1.68971">
        <ele>285</ele>
        <time>2020-04-07T13:53:53Z</time>
      </trkpt>
      <trkpt lat="43.30805" lon="-1.68939">
        <ele>282</ele>
        <time>2020-04-07T13:53:58Z</time>
      </trkpt>
      <trkpt lat="43.30816" lon="-1.68928">
        <ele>282</ele>
        <time>2020-04-07T13:54:01Z</time>
      </trkpt>
      <trkpt lat="43.3083" lon="-1.68926">
        <ele>284</ele>
        <time>2020-04-07T13:54:03Z</time>
      </trkpt>
      <trkpt lat="43.30839" lon="-1.68931">
        <ele>287</ele>
        <time>2020-04-07T13:54:05Z</time>
      </trkpt>
      <trkpt lat="43.30851" lon="-1.68942">
        <ele>290</ele>
        <time>2020-04-07T13:54:07Z</time>
      </trkpt>
      <trkpt lat="43.30864" lon="-1.6895">
        <ele>294</ele>
        <time>2020-04-07T13:54:10Z</time>
      </trkpt>
      <trkpt lat="43.30871" lon="-1.6895">
        <ele>296</ele>
        <time>2020-04-07T13:54:11Z</time>
      </trkpt>
      <trkpt lat="43.30876" lon="-1.68947">
        <ele>297</ele>
        <time>2020-04-07T13:54:12Z</time>
      </trkpt>
      <trkpt lat="43.3088" lon="-1.6894">
        <ele>297</ele>
        <time>2020-04-07T13:54:13Z</time>
      </trkpt>
      <trkpt lat="43.30882" lon="-1.68934">
        <ele>297</ele>
        <time>2020-04-07T13:54:14Z</time>
      </trkpt>
      <trkpt lat="43.30882" lon="-1.68926">
        <ele>297</ele>
        <time>2020-04-07T13:54:15Z</time>
      </trkpt>
      <trkpt lat="43.30881" lon="-1.68915">
        <ele>296</ele>
        <time>2020-04-07T13:54:17Z</time>
      </trkpt>
      <trkpt lat="43.30865" lon="-1.68879">
        <ele>296</ele>
        <time>2020-04-07T13:54:22Z</time>
      </trkpt>
      <trkpt lat="43.30858" lon="-1.68856">
        <ele>297</ele>
        <time>2020-04-07T13:54:25Z</time>
      </trkpt>
      <trkpt lat="43.30855" lon="-1.68822">
        <ele>300</ele>
        <time>2020-04-07T13:54:30Z</time>
      </trkpt>
      <trkpt lat="43.30853" lon="-1.68812">
        <ele>302</ele>
        <time>2020-04-07T13:54:31Z</time>
      </trkpt>
      <trkpt lat="43.30846" lon="-1.68803">
        <ele>301</ele>
        <time>2020-04-07T13:54:33Z</time>
      </trkpt>
      <trkpt lat="43.3084" lon="-1.68801">
        <ele>300</ele>
        <time>2020-04-07T13:54:34Z</time>
      </trkpt>
      <trkpt lat="43.30824" lon="-1.68809">
        <ele>294</ele>
        <time>2020-04-07T13:54:37Z</time>
      </trkpt>
      <trkpt lat="43.30816" lon="-1.68809">
        <ele>292</ele>
        <time>2020-04-07T13:54:38Z</time>
      </trkpt>
      <trkpt lat="43.30806" lon="-1.68804">
        <ele>291</ele>
        <time>2020-04-07T13:54:40Z</time>
      </trkpt>
      <trkpt lat="43.30775" lon="-1.68774">
        <ele>290</ele>
        <time>2020-04-07T13:54:47Z</time>
      </trkpt>
      <trkpt lat="43.30766" lon="-1.6876">
        <ele>290</ele>
        <time>2020-04-07T13:54:49Z</time>
      </trkpt>
      <trkpt lat="43.30762" lon="-1.68745">
        <ele>291</ele>
        <time>2020-04-07T13:54:51Z</time>
      </trkpt>
      <trkpt lat="43.30762" lon="-1.68732">
        <ele>291</ele>
        <time>2020-04-07T13:54:53Z</time>
      </trkpt>
      <trkpt lat="43.30763" lon="-1.68715">
        <ele>291</ele>
        <time>2020-04-07T13:54:55Z</time>
      </trkpt>
      <trkpt lat="43.30768" lon="-1.68694">
        <ele>292</ele>
        <time>2020-04-07T13:54:58Z</time>
      </trkpt>
      <trkpt lat="43.30775" lon="-1.68671">
        <ele>294</ele>
        <time>2020-04-07T13:55:01Z</time>
      </trkpt>
      <trkpt lat="43.30783" lon="-1.68659">
        <ele>295</ele>
        <time>2020-04-07T13:55:04Z</time>
      </trkpt>
      <trkpt lat="43.30791" lon="-1.68651">
        <ele>296</ele>
        <time>2020-04-07T13:55:05Z</time>
      </trkpt>
      <trkpt lat="43.30808" lon="-1.68644">
        <ele>299</ele>
        <time>2020-04-07T13:55:08Z</time>
      </trkpt>
      <trkpt lat="43.30829" lon="-1.6864">
        <ele>305</ele>
        <time>2020-04-07T13:55:12Z</time>
      </trkpt>
      <trkpt lat="43.30849" lon="-1.68631">
        <ele>308</ele>
        <time>2020-04-07T13:55:16Z</time>
      </trkpt>
      <trkpt lat="43.3086" lon="-1.68618">
        <ele>309</ele>
        <time>2020-04-07T13:55:19Z</time>
      </trkpt>
      <trkpt lat="43.30863" lon="-1.68609">
        <ele>308</ele>
        <time>2020-04-07T13:55:20Z</time>
      </trkpt>
      <trkpt lat="43.30864" lon="-1.68543">
        <ele>302</ele>
        <time>2020-04-07T13:55:28Z</time>
      </trkpt>
      <trkpt lat="43.30865" lon="-1.68526">
        <ele>302</ele>
        <time>2020-04-07T13:55:31Z</time>
      </trkpt>
      <trkpt lat="43.30867" lon="-1.68515">
        <ele>301</ele>
        <time>2020-04-07T13:55:32Z</time>
      </trkpt>
      <trkpt lat="43.30876" lon="-1.68497">
        <ele>303</ele>
        <time>2020-04-07T13:55:35Z</time>
      </trkpt>
      <trkpt lat="43.30897" lon="-1.68473">
        <ele>308</ele>
        <time>2020-04-07T13:55:40Z</time>
      </trkpt>
      <trkpt lat="43.30902" lon="-1.68461">
        <ele>309</ele>
        <time>2020-04-07T13:55:42Z</time>
      </trkpt>
      <trkpt lat="43.30911" lon="-1.68438">
        <ele>311</ele>
        <time>2020-04-07T13:55:45Z</time>
      </trkpt>
      <trkpt lat="43.30915" lon="-1.68434">
        <ele>313</ele>
        <time>2020-04-07T13:55:46Z</time>
      </trkpt>
      <trkpt lat="43.30922" lon="-1.68426">
        <ele>313</ele>
        <time>2020-04-07T13:55:47Z</time>
      </trkpt>
      <trkpt lat="43.30927" lon="-1.68423">
        <ele>314</ele>
        <time>2020-04-07T13:55:48Z</time>
      </trkpt>
      <trkpt lat="43.30939" lon="-1.68422">
        <ele>315</ele>
        <time>2020-04-07T13:55:51Z</time>
      </trkpt>
      <trkpt lat="43.30959" lon="-1.68429">
        <ele>316</ele>
        <time>2020-04-07T13:55:54Z</time>
      </trkpt>
      <trkpt lat="43.30963" lon="-1.68433">
        <ele>316</ele>
        <time>2020-04-07T13:55:55Z</time>
      </trkpt>
      <trkpt lat="43.30964" lon="-1.68432">
        <ele>316</ele>
        <time>2020-04-07T13:55:55Z</time>
      </trkpt>
      <trkpt lat="43.30965" lon="-1.68431">
        <ele>317</ele>
        <time>2020-04-07T13:55:56Z</time>
      </trkpt>
      <trkpt lat="43.30967" lon="-1.68431">
        <ele>317</ele>
        <time>2020-04-07T13:55:56Z</time>
      </trkpt>
      <trkpt lat="43.30969" lon="-1.68431">
        <ele>317</ele>
        <time>2020-04-07T13:55:56Z</time>
      </trkpt>
      <trkpt lat="43.3097" lon="-1.68432">
        <ele>317</ele>
        <time>2020-04-07T13:55:56Z</time>
      </trkpt>
      <trkpt lat="43.30971" lon="-1.68433">
        <ele>317</ele>
        <time>2020-04-07T13:55:57Z</time>
      </trkpt>
      <trkpt lat="43.30972" lon="-1.68435">
        <ele>317</ele>
        <time>2020-04-07T13:55:57Z</time>
      </trkpt>
      <trkpt lat="43.30972" lon="-1.68437">
        <ele>317</ele>
        <time>2020-04-07T13:55:57Z</time>
      </trkpt>
      <trkpt lat="43.30974" lon="-1.68436">
        <ele>317</ele>
        <time>2020-04-07T13:55:58Z</time>
      </trkpt>
      <trkpt lat="43.3098" lon="-1.68437">
        <ele>317</ele>
        <time>2020-04-07T13:55:59Z</time>
      </trkpt>
      <trkpt lat="43.31034" lon="-1.68456">
        <ele>316</ele>
        <time>2020-04-07T13:56:09Z</time>
      </trkpt>
      <trkpt lat="43.3105" lon="-1.6846">
        <ele>315</ele>
        <time>2020-04-07T13:56:12Z</time>
      </trkpt>
      <trkpt lat="43.31148" lon="-1.68488">
        <ele>310</ele>
        <time>2020-04-07T13:56:29Z</time>
      </trkpt>
      <trkpt lat="43.31185" lon="-1.68492">
        <ele>309</ele>
        <time>2020-04-07T13:56:36Z</time>
      </trkpt>
      <trkpt lat="43.31213" lon="-1.68482">
        <ele>309</ele>
        <time>2020-04-07T13:56:41Z</time>
      </trkpt>
      <trkpt lat="43.31276" lon="-1.68498">
        <ele>302</ele>
        <time>2020-04-07T13:56:52Z</time>
      </trkpt>
      <trkpt lat="43.31288" lon="-1.68498">
        <ele>301</ele>
        <time>2020-04-07T13:56:55Z</time>
      </trkpt>
      <trkpt lat="43.31295" lon="-1.68497">
        <ele>301</ele>
        <time>2020-04-07T13:56:56Z</time>
      </trkpt>
      <trkpt lat="43.31318" lon="-1.68483">
        <ele>303</ele>
        <time>2020-04-07T13:57:00Z</time>
      </trkpt>
      <trkpt lat="43.31333" lon="-1.68482">
        <ele>302</ele>
        <time>2020-04-07T13:57:03Z</time>
      </trkpt>
      <trkpt lat="43.31347" lon="-1.68486">
        <ele>301</ele>
        <time>2020-04-07T13:57:06Z</time>
      </trkpt>
      <trkpt lat="43.31362" lon="-1.68495">
        <ele>298</ele>
        <time>2020-04-07T13:57:08Z</time>
      </trkpt>
      <trkpt lat="43.31374" lon="-1.68498">
        <ele>298</ele>
        <time>2020-04-07T13:57:11Z</time>
      </trkpt>
      <trkpt lat="43.31408" lon="-1.68494">
        <ele>299</ele>
        <time>2020-04-07T13:57:17Z</time>
      </trkpt>
      <trkpt lat="43.31459" lon="-1.68492">
        <ele>296</ele>
        <time>2020-04-07T13:57:26Z</time>
      </trkpt>
      <trkpt lat="43.31465" lon="-1.68495">
        <ele>294</ele>
        <time>2020-04-07T13:57:27Z</time>
      </trkpt>
      <trkpt lat="43.31485" lon="-1.68512">
        <ele>289</ele>
        <time>2020-04-07T13:57:31Z</time>
      </trkpt>
      <trkpt lat="43.31497" lon="-1.68514">
        <ele>287</ele>
        <time>2020-04-07T13:57:33Z</time>
      </trkpt>
      <trkpt lat="43.31519" lon="-1.68509">
        <ele>287</ele>
        <time>2020-04-07T13:57:37Z</time>
      </trkpt>
      <trkpt lat="43.31542" lon="-1.68514">
        <ele>284</ele>
        <time>2020-04-07T13:57:41Z</time>
      </trkpt>
      <trkpt lat="43.31549" lon="-1.68514">
        <ele>284</ele>
        <time>2020-04-07T13:57:43Z</time>
      </trkpt>
      <trkpt lat="43.31582" lon="-1.68499">
        <ele>284</ele>
        <time>2020-04-07T13:57:49Z</time>
      </trkpt>
      <trkpt lat="43.3163" lon="-1.68519">
        <ele>278</ele>
        <time>2020-04-07T13:57:58Z</time>
      </trkpt>
      <trkpt lat="43.31657" lon="-1.68524">
        <ele>275</ele>
        <time>2020-04-07T13:58:03Z</time>
      </trkpt>
      <trkpt lat="43.31675" lon="-1.68524">
        <ele>273</ele>
        <time>2020-04-07T13:58:06Z</time>
      </trkpt>
      <trkpt lat="43.31693" lon="-1.6852">
        <ele>272</ele>
        <time>2020-04-07T13:58:09Z</time>
      </trkpt>
      <trkpt lat="43.31708" lon="-1.68512">
        <ele>273</ele>
        <time>2020-04-07T13:58:12Z</time>
      </trkpt>
      <trkpt lat="43.31721" lon="-1.68501">
        <ele>275</ele>
        <time>2020-04-07T13:58:15Z</time>
      </trkpt>
      <trkpt lat="43.31726" lon="-1.68499">
        <ele>275</ele>
        <time>2020-04-07T13:58:16Z</time>
      </trkpt>
      <trkpt lat="43.31738" lon="-1.68499">
        <ele>274</ele>
        <time>2020-04-07T13:58:18Z</time>
      </trkpt>
      <trkpt lat="43.31758" lon="-1.68505">
        <ele>270</ele>
        <time>2020-04-07T13:58:21Z</time>
      </trkpt>
      <trkpt lat="43.31769" lon="-1.68505">
        <ele>268</ele>
        <time>2020-04-07T13:58:23Z</time>
      </trkpt>
      <trkpt lat="43.31791" lon="-1.68502">
        <ele>267</ele>
        <time>2020-04-07T13:58:27Z</time>
      </trkpt>
      <trkpt lat="43.31817" lon="-1.68494">
        <ele>266</ele>
        <time>2020-04-07T13:58:32Z</time>
      </trkpt>
      <trkpt lat="43.31844" lon="-1.68502">
        <ele>262</ele>
        <time>2020-04-07T13:58:37Z</time>
      </trkpt>
      <trkpt lat="43.3188" lon="-1.68496">
        <ele>261</ele>
        <time>2020-04-07T13:58:43Z</time>
      </trkpt>
      <trkpt lat="43.31902" lon="-1.68502">
        <ele>258</ele>
        <time>2020-04-07T13:58:47Z</time>
      </trkpt>
      <trkpt lat="43.31924" lon="-1.685">
        <ele>257</ele>
        <time>2020-04-07T13:58:51Z</time>
      </trkpt>
      <trkpt lat="43.31964" lon="-1.68515">
        <ele>251</ele>
        <time>2020-04-07T13:58:59Z</time>
      </trkpt>
      <trkpt lat="43.31986" lon="-1.68518">
        <ele>249</ele>
        <time>2020-04-07T13:59:03Z</time>
      </trkpt>
      <trkpt lat="43.32" lon="-1.68524">
        <ele>247</ele>
        <time>2020-04-07T13:59:05Z</time>
      </trkpt>
      <trkpt lat="43.32007" lon="-1.68524">
        <ele>246</ele>
        <time>2020-04-07T13:59:06Z</time>
      </trkpt>
      <trkpt lat="43.32022" lon="-1.68519">
        <ele>246</ele>
        <time>2020-04-07T13:59:09Z</time>
      </trkpt>
      <trkpt lat="43.3203" lon="-1.68514">
        <ele>246</ele>
        <time>2020-04-07T13:59:11Z</time>
      </trkpt>
      <trkpt lat="43.32036" lon="-1.68507">
        <ele>246</ele>
        <time>2020-04-07T13:59:12Z</time>
      </trkpt>
      <trkpt lat="43.32041" lon="-1.68499">
        <ele>247</ele>
        <time>2020-04-07T13:59:13Z</time>
      </trkpt>
      <trkpt lat="43.32066" lon="-1.68442">
        <ele>249</ele>
        <time>2020-04-07T13:59:22Z</time>
      </trkpt>
      <trkpt lat="43.32071" lon="-1.68432">
        <ele>249</ele>
        <time>2020-04-07T13:59:24Z</time>
      </trkpt>
      <trkpt lat="43.32076" lon="-1.68429">
        <ele>248</ele>
        <time>2020-04-07T13:59:25Z</time>
      </trkpt>
      <trkpt lat="43.3208" lon="-1.68428">
        <ele>248</ele>
        <time>2020-04-07T13:59:25Z</time>
      </trkpt>
      <trkpt lat="43.32084" lon="-1.68427">
        <ele>247</ele>
        <time>2020-04-07T13:59:26Z</time>
      </trkpt>
      <trkpt lat="43.32087" lon="-1.68429">
        <ele>248</ele>
        <time>2020-04-07T13:59:27Z</time>
      </trkpt>
      <trkpt lat="43.32091" lon="-1.68432">
        <ele>248</ele>
        <time>2020-04-07T13:59:27Z</time>
      </trkpt>
      <trkpt lat="43.32094" lon="-1.68437">
        <ele>248</ele>
        <time>2020-04-07T13:59:28Z</time>
      </trkpt>
      <trkpt lat="43.32098" lon="-1.68444">
        <ele>248</ele>
        <time>2020-04-07T13:59:29Z</time>
      </trkpt>
      <trkpt lat="43.32109" lon="-1.68481">
        <ele>247</ele>
        <time>2020-04-07T13:59:35Z</time>
      </trkpt>
      <trkpt lat="43.32112" lon="-1.68487">
        <ele>247</ele>
        <time>2020-04-07T13:59:36Z</time>
      </trkpt>
      <trkpt lat="43.32127" lon="-1.68505">
        <ele>247</ele>
        <time>2020-04-07T13:59:39Z</time>
      </trkpt>
      <trkpt lat="43.32131" lon="-1.68518">
        <ele>244</ele>
        <time>2020-04-07T13:59:41Z</time>
      </trkpt>
      <trkpt lat="43.32133" lon="-1.68552">
        <ele>237</ele>
        <time>2020-04-07T13:59:45Z</time>
      </trkpt>
      <trkpt lat="43.32136" lon="-1.68568">
        <ele>234</ele>
        <time>2020-04-07T13:59:47Z</time>
      </trkpt>
      <trkpt lat="43.32143" lon="-1.68582">
        <ele>231</ele>
        <time>2020-04-07T13:59:50Z</time>
      </trkpt>
      <trkpt lat="43.32149" lon="-1.68587">
        <ele>231</ele>
        <time>2020-04-07T13:59:51Z</time>
      </trkpt>
      <trkpt lat="43.32162" lon="-1.68593">
        <ele>231</ele>
        <time>2020-04-07T13:59:53Z</time>
      </trkpt>
      <trkpt lat="43.32196" lon="-1.68592">
        <ele>233</ele>
        <time>2020-04-07T13:59:59Z</time>
      </trkpt>
      <trkpt lat="43.32227" lon="-1.68596">
        <ele>235</ele>
        <time>2020-04-07T14:00:05Z</time>
      </trkpt>
      <trkpt lat="43.32233" lon="-1.68598">
        <ele>235</ele>
        <time>2020-04-07T14:00:06Z</time>
      </trkpt>
      <trkpt lat="43.32292" lon="-1.68632">
        <ele>229</ele>
        <time>2020-04-07T14:00:17Z</time>
      </trkpt>
      <trkpt lat="43.32324" lon="-1.68641">
        <ele>226</ele>
        <time>2020-04-07T14:00:23Z</time>
      </trkpt>
      <trkpt lat="43.3233" lon="-1.68645">
        <ele>224</ele>
        <time>2020-04-07T14:00:24Z</time>
      </trkpt>
      <trkpt lat="43.32348" lon="-1.68664">
        <ele>218</ele>
        <time>2020-04-07T14:00:28Z</time>
      </trkpt>
      <trkpt lat="43.32357" lon="-1.68667">
        <ele>216</ele>
        <time>2020-04-07T14:00:30Z</time>
      </trkpt>
      <trkpt lat="43.32377" lon="-1.68661">
        <ele>216</ele>
        <time>2020-04-07T14:00:34Z</time>
      </trkpt>
      <trkpt lat="43.32418" lon="-1.68631">
        <ele>223</ele>
        <time>2020-04-07T14:00:42Z</time>
      </trkpt>
      <trkpt lat="43.32437" lon="-1.68629">
        <ele>224</ele>
        <time>2020-04-07T14:00:45Z</time>
      </trkpt>
      <trkpt lat="43.32457" lon="-1.68633">
        <ele>222</ele>
        <time>2020-04-07T14:00:49Z</time>
      </trkpt>
      <trkpt lat="43.32469" lon="-1.68639">
        <ele>219</ele>
        <time>2020-04-07T14:00:51Z</time>
      </trkpt>
      <trkpt lat="43.32482" lon="-1.68648">
        <ele>216</ele>
        <time>2020-04-07T14:00:54Z</time>
      </trkpt>
      <trkpt lat="43.32524" lon="-1.68687">
        <ele>206</ele>
        <time>2020-04-07T14:01:03Z</time>
      </trkpt>
      <trkpt lat="43.32534" lon="-1.68691">
        <ele>205</ele>
        <time>2020-04-07T14:01:05Z</time>
      </trkpt>
      <trkpt lat="43.32547" lon="-1.68689">
        <ele>206</ele>
        <time>2020-04-07T14:01:07Z</time>
      </trkpt>
      <trkpt lat="43.32559" lon="-1.68684">
        <ele>207</ele>
        <time>2020-04-07T14:01:09Z</time>
      </trkpt>
      <trkpt lat="43.32585" lon="-1.68679">
        <ele>208</ele>
        <time>2020-04-07T14:01:14Z</time>
      </trkpt>
      <trkpt lat="43.32609" lon="-1.68665">
        <ele>210</ele>
        <time>2020-04-07T14:01:19Z</time>
      </trkpt>
      <trkpt lat="43.32613" lon="-1.68665">
        <ele>210</ele>
        <time>2020-04-07T14:01:19Z</time>
      </trkpt>
      <trkpt lat="43.32646" lon="-1.68676">
        <ele>205</ele>
        <time>2020-04-07T14:01:25Z</time>
      </trkpt>
      <trkpt lat="43.32686" lon="-1.68683">
        <ele>201</ele>
        <time>2020-04-07T14:01:33Z</time>
      </trkpt>
      <trkpt lat="43.32743" lon="-1.68712">
        <ele>190</ele>
        <time>2020-04-07T14:01:43Z</time>
      </trkpt>
      <trkpt lat="43.3276" lon="-1.68719">
        <ele>186</ele>
        <time>2020-04-07T14:01:47Z</time>
      </trkpt>
      <trkpt lat="43.32788" lon="-1.68723">
        <ele>183</ele>
        <time>2020-04-07T14:01:52Z</time>
      </trkpt>
      <trkpt lat="43.32821" lon="-1.68723">
        <ele>180</ele>
        <time>2020-04-07T14:01:57Z</time>
      </trkpt>
      <trkpt lat="43.32844" lon="-1.68719">
        <ele>178</ele>
        <time>2020-04-07T14:02:02Z</time>
      </trkpt>
      <trkpt lat="43.32869" lon="-1.68707">
        <ele>175</ele>
        <time>2020-04-07T14:02:06Z</time>
      </trkpt>
      <trkpt lat="43.3292" lon="-1.68673">
        <ele>170</ele>
        <time>2020-04-07T14:02:16Z</time>
      </trkpt>
      <trkpt lat="43.32935" lon="-1.68659">
        <ele>168</ele>
        <time>2020-04-07T14:02:20Z</time>
      </trkpt>
      <trkpt lat="43.32941" lon="-1.68651">
        <ele>167</ele>
        <time>2020-04-07T14:02:21Z</time>
      </trkpt>
      <trkpt lat="43.32943" lon="-1.68645">
        <ele>167</ele>
        <time>2020-04-07T14:02:22Z</time>
      </trkpt>
      <trkpt lat="43.32946" lon="-1.68636">
        <ele>166</ele>
        <time>2020-04-07T14:02:23Z</time>
      </trkpt>
      <trkpt lat="43.32946" lon="-1.68628">
        <ele>166</ele>
        <time>2020-04-07T14:02:24Z</time>
      </trkpt>
      <trkpt lat="43.32943" lon="-1.68608">
        <ele>168</ele>
        <time>2020-04-07T14:02:27Z</time>
      </trkpt>
      <trkpt lat="43.32922" lon="-1.68535">
        <ele>170</ele>
        <time>2020-04-07T14:02:37Z</time>
      </trkpt>
      <trkpt lat="43.32915" lon="-1.6852">
        <ele>170</ele>
        <time>2020-04-07T14:02:39Z</time>
      </trkpt>
      <trkpt lat="43.32896" lon="-1.68499">
        <ele>172</ele>
        <time>2020-04-07T14:02:44Z</time>
      </trkpt>
      <trkpt lat="43.32891" lon="-1.68491">
        <ele>172</ele>
        <time>2020-04-07T14:02:45Z</time>
      </trkpt>
      <trkpt lat="43.3288" lon="-1.68468">
        <ele>173</ele>
        <time>2020-04-07T14:02:49Z</time>
      </trkpt>
      <trkpt lat="43.32874" lon="-1.68447">
        <ele>173</ele>
        <time>2020-04-07T14:02:52Z</time>
      </trkpt>
      <trkpt lat="43.32873" lon="-1.68429">
        <ele>171</ele>
        <time>2020-04-07T14:02:54Z</time>
      </trkpt>
      <trkpt lat="43.32874" lon="-1.68421">
        <ele>170</ele>
        <time>2020-04-07T14:02:55Z</time>
      </trkpt>
      <trkpt lat="43.3288" lon="-1.68404">
        <ele>168</ele>
        <time>2020-04-07T14:02:57Z</time>
      </trkpt>
      <trkpt lat="43.32894" lon="-1.68375">
        <ele>163</ele>
        <time>2020-04-07T14:03:02Z</time>
      </trkpt>
      <trkpt lat="43.32897" lon="-1.68362">
        <ele>162</ele>
        <time>2020-04-07T14:03:04Z</time>
      </trkpt>
      <trkpt lat="43.32893" lon="-1.68342">
        <ele>163</ele>
        <time>2020-04-07T14:03:06Z</time>
      </trkpt>
      <trkpt lat="43.32886" lon="-1.68322">
        <ele>164</ele>
        <time>2020-04-07T14:03:09Z</time>
      </trkpt>
      <trkpt lat="43.32884" lon="-1.6831">
        <ele>164</ele>
        <time>2020-04-07T14:03:11Z</time>
      </trkpt>
      <trkpt lat="43.32892" lon="-1.68262">
        <ele>157</ele>
        <time>2020-04-07T14:03:17Z</time>
      </trkpt>
      <trkpt lat="43.32893" lon="-1.68252">
        <ele>156</ele>
        <time>2020-04-07T14:03:18Z</time>
      </trkpt>
      <trkpt lat="43.32888" lon="-1.68221">
        <ele>153</ele>
        <time>2020-04-07T14:03:23Z</time>
      </trkpt>
      <trkpt lat="43.3288" lon="-1.68197">
        <ele>151</ele>
        <time>2020-04-07T14:03:26Z</time>
      </trkpt>
      <trkpt lat="43.32871" lon="-1.68181">
        <ele>151</ele>
        <time>2020-04-07T14:03:29Z</time>
      </trkpt>
      <trkpt lat="43.32856" lon="-1.68167">
        <ele>152</ele>
        <time>2020-04-07T14:03:32Z</time>
      </trkpt>
      <trkpt lat="43.32853" lon="-1.6816">
        <ele>151</ele>
        <time>2020-04-07T14:03:33Z</time>
      </trkpt>
      <trkpt lat="43.32853" lon="-1.68156">
        <ele>150</ele>
        <time>2020-04-07T14:03:33Z</time>
      </trkpt>
      <trkpt lat="43.32854" lon="-1.68152">
        <ele>148</ele>
        <time>2020-04-07T14:03:34Z</time>
      </trkpt>
      <trkpt lat="43.32859" lon="-1.68147">
        <ele>146</ele>
        <time>2020-04-07T14:03:35Z</time>
      </trkpt>
      <trkpt lat="43.32866" lon="-1.68149">
        <ele>145</ele>
        <time>2020-04-07T14:03:36Z</time>
      </trkpt>
      <trkpt lat="43.32901" lon="-1.68189">
        <ele>144</ele>
        <time>2020-04-07T14:03:44Z</time>
      </trkpt>
      <trkpt lat="43.32912" lon="-1.68206">
        <ele>143</ele>
        <time>2020-04-07T14:03:47Z</time>
      </trkpt>
      <trkpt lat="43.32916" lon="-1.68216">
        <ele>143</ele>
        <time>2020-04-07T14:03:49Z</time>
      </trkpt>
      <trkpt lat="43.3292" lon="-1.68239">
        <ele>144</ele>
        <time>2020-04-07T14:03:52Z</time>
      </trkpt>
      <trkpt lat="43.3292" lon="-1.68288">
        <ele>149</ele>
        <time>2020-04-07T14:03:58Z</time>
      </trkpt>
      <trkpt lat="43.32921" lon="-1.68296">
        <ele>149</ele>
        <time>2020-04-07T14:03:59Z</time>
      </trkpt>
      <trkpt lat="43.32926" lon="-1.68306">
        <ele>148</ele>
        <time>2020-04-07T14:04:01Z</time>
      </trkpt>
      <trkpt lat="43.32932" lon="-1.68309">
        <ele>146</ele>
        <time>2020-04-07T14:04:02Z</time>
      </trkpt>
      <trkpt lat="43.32948" lon="-1.68306">
        <ele>140</ele>
        <time>2020-04-07T14:04:05Z</time>
      </trkpt>
      <trkpt lat="43.32959" lon="-1.68306">
        <ele>136</ele>
        <time>2020-04-07T14:04:07Z</time>
      </trkpt>
      <trkpt lat="43.32968" lon="-1.68314">
        <ele>134</ele>
        <time>2020-04-07T14:04:09Z</time>
      </trkpt>
      <trkpt lat="43.32973" lon="-1.68322">
        <ele>133</ele>
        <time>2020-04-07T14:04:10Z</time>
      </trkpt>
      <trkpt lat="43.32981" lon="-1.68344">
        <ele>132</ele>
        <time>2020-04-07T14:04:13Z</time>
      </trkpt>
      <trkpt lat="43.32983" lon="-1.68362">
        <ele>133</ele>
        <time>2020-04-07T14:04:16Z</time>
      </trkpt>
      <trkpt lat="43.32981" lon="-1.68376">
        <ele>135</ele>
        <time>2020-04-07T14:04:17Z</time>
      </trkpt>
      <trkpt lat="43.32971" lon="-1.68401">
        <ele>141</ele>
        <time>2020-04-07T14:04:21Z</time>
      </trkpt>
      <trkpt lat="43.32972" lon="-1.68412">
        <ele>141</ele>
        <time>2020-04-07T14:04:23Z</time>
      </trkpt>
      <trkpt lat="43.32976" lon="-1.6842">
        <ele>141</ele>
        <time>2020-04-07T14:04:24Z</time>
      </trkpt>
      <trkpt lat="43.3298" lon="-1.68424">
        <ele>140</ele>
        <time>2020-04-07T14:04:25Z</time>
      </trkpt>
      <trkpt lat="43.32988" lon="-1.68424">
        <ele>138</ele>
        <time>2020-04-07T14:04:26Z</time>
      </trkpt>
      <trkpt lat="43.33012" lon="-1.68418">
        <ele>131</ele>
        <time>2020-04-07T14:04:31Z</time>
      </trkpt>
      <trkpt lat="43.33028" lon="-1.68417">
        <ele>128</ele>
        <time>2020-04-07T14:04:33Z</time>
      </trkpt>
      <trkpt lat="43.33046" lon="-1.68427">
        <ele>125</ele>
        <time>2020-04-07T14:04:37Z</time>
      </trkpt>
      <trkpt lat="43.33073" lon="-1.68461">
        <ele>122</ele>
        <time>2020-04-07T14:04:43Z</time>
      </trkpt>
      <trkpt lat="43.33096" lon="-1.6851">
        <ele>122</ele>
        <time>2020-04-07T14:04:51Z</time>
      </trkpt>
      <trkpt lat="43.33113" lon="-1.68554">
        <ele>120</ele>
        <time>2020-04-07T14:04:57Z</time>
      </trkpt>
      <trkpt lat="43.33129" lon="-1.68575">
        <ele>118</ele>
        <time>2020-04-07T14:05:01Z</time>
      </trkpt>
      <trkpt lat="43.33145" lon="-1.68586">
        <ele>115</ele>
        <time>2020-04-07T14:05:04Z</time>
      </trkpt>
      <trkpt lat="43.33166" lon="-1.68591">
        <ele>110</ele>
        <time>2020-04-07T14:05:08Z</time>
      </trkpt>
      <trkpt lat="43.33176" lon="-1.68602">
        <ele>109</ele>
        <time>2020-04-07T14:05:11Z</time>
      </trkpt>
      <trkpt lat="43.33178" lon="-1.68622">
        <ele>109</ele>
        <time>2020-04-07T14:05:13Z</time>
      </trkpt>
      <trkpt lat="43.33177" lon="-1.68656">
        <ele>111</ele>
        <time>2020-04-07T14:05:18Z</time>
      </trkpt>
      <trkpt lat="43.33183" lon="-1.68678">
        <ele>110</ele>
        <time>2020-04-07T14:05:21Z</time>
      </trkpt>
      <trkpt lat="43.33201" lon="-1.68704">
        <ele>109</ele>
        <time>2020-04-07T14:05:25Z</time>
      </trkpt>
      <trkpt lat="43.33216" lon="-1.68717">
        <ele>107</ele>
        <time>2020-04-07T14:05:28Z</time>
      </trkpt>
      <trkpt lat="43.33222" lon="-1.68721">
        <ele>107</ele>
        <time>2020-04-07T14:05:30Z</time>
      </trkpt>
      <trkpt lat="43.33262" lon="-1.68737">
        <ele>103</ele>
        <time>2020-04-07T14:05:37Z</time>
      </trkpt>
      <trkpt lat="43.33297" lon="-1.68742">
        <ele>100</ele>
        <time>2020-04-07T14:05:43Z</time>
      </trkpt>
      <trkpt lat="43.33324" lon="-1.68741">
        <ele>98</ele>
        <time>2020-04-07T14:05:48Z</time>
      </trkpt>
      <trkpt lat="43.33339" lon="-1.68741">
        <ele>97</ele>
        <time>2020-04-07T14:05:51Z</time>
      </trkpt>
      <trkpt lat="43.33377" lon="-1.6874">
        <ele>98</ele>
        <time>2020-04-07T14:05:57Z</time>
      </trkpt>
      <trkpt lat="43.33394" lon="-1.68738">
        <ele>98</ele>
        <time>2020-04-07T14:06:00Z</time>
      </trkpt>
      <trkpt lat="43.33391" lon="-1.68727">
        <ele>97</ele>
        <time>2020-04-07T14:06:02Z</time>
      </trkpt>
      <trkpt lat="43.33392" lon="-1.68722">
        <ele>97</ele>
        <time>2020-04-07T14:06:03Z</time>
      </trkpt>
      <trkpt lat="43.33391" lon="-1.68727">
        <ele>97</ele>
        <time>2020-04-07T14:06:03Z</time>
      </trkpt>
      <trkpt lat="43.33394" lon="-1.68738">
        <ele>98</ele>
        <time>2020-04-07T14:06:05Z</time>
      </trkpt>
      <trkpt lat="43.33397" lon="-1.68745">
        <ele>98</ele>
        <time>2020-04-07T14:06:06Z</time>
      </trkpt>
      <trkpt lat="43.33404" lon="-1.68755">
        <ele>99</ele>
        <time>2020-04-07T14:06:08Z</time>
      </trkpt>
      <trkpt lat="43.33419" lon="-1.68795">
        <ele>98</ele>
        <time>2020-04-07T14:06:14Z</time>
      </trkpt>
      <trkpt lat="43.33424" lon="-1.68818">
        <ele>98</ele>
        <time>2020-04-07T14:06:17Z</time>
      </trkpt>
      <trkpt lat="43.33426" lon="-1.68841">
        <ele>96</ele>
        <time>2020-04-07T14:06:20Z</time>
      </trkpt>
      <trkpt lat="43.33435" lon="-1.68877">
        <ele>93</ele>
        <time>2020-04-07T14:06:25Z</time>
      </trkpt>
      <trkpt lat="43.33451" lon="-1.68907">
        <ele>91</ele>
        <time>2020-04-07T14:06:29Z</time>
      </trkpt>
      <trkpt lat="43.335" lon="-1.68976">
        <ele>84</ele>
        <time>2020-04-07T14:06:42Z</time>
      </trkpt>
      <trkpt lat="43.33517" lon="-1.68989">
        <ele>82</ele>
        <time>2020-04-07T14:06:45Z</time>
      </trkpt>
      <trkpt lat="43.33537" lon="-1.68997">
        <ele>82</ele>
        <time>2020-04-07T14:06:49Z</time>
      </trkpt>
      <trkpt lat="43.33556" lon="-1.69002">
        <ele>82</ele>
        <time>2020-04-07T14:06:52Z</time>
      </trkpt>
      <trkpt lat="43.3358" lon="-1.69005">
        <ele>83</ele>
        <time>2020-04-07T14:06:57Z</time>
      </trkpt>
      <trkpt lat="43.33591" lon="-1.69009">
        <ele>83</ele>
        <time>2020-04-07T14:06:59Z</time>
      </trkpt>
      <trkpt lat="43.336" lon="-1.69022">
        <ele>81</ele>
        <time>2020-04-07T14:07:01Z</time>
      </trkpt>
      <trkpt lat="43.33615" lon="-1.69056">
        <ele>76</ele>
        <time>2020-04-07T14:07:06Z</time>
      </trkpt>
      <trkpt lat="43.33629" lon="-1.69075">
        <ele>74</ele>
        <time>2020-04-07T14:07:10Z</time>
      </trkpt>
      <trkpt lat="43.33644" lon="-1.69089">
        <ele>73</ele>
        <time>2020-04-07T14:07:13Z</time>
      </trkpt>
      <trkpt lat="43.33661" lon="-1.69097">
        <ele>73</ele>
        <time>2020-04-07T14:07:16Z</time>
      </trkpt>
      <trkpt lat="43.33677" lon="-1.691">
        <ele>72</ele>
        <time>2020-04-07T14:07:19Z</time>
      </trkpt>
      <trkpt lat="43.33723" lon="-1.691">
        <ele>68</ele>
        <time>2020-04-07T14:07:27Z</time>
      </trkpt>
      <trkpt lat="43.33746" lon="-1.69098">
        <ele>66</ele>
        <time>2020-04-07T14:07:31Z</time>
      </trkpt>
      <trkpt lat="43.33771" lon="-1.69089">
        <ele>65</ele>
        <time>2020-04-07T14:07:36Z</time>
      </trkpt>
      <trkpt lat="43.3378" lon="-1.69084">
        <ele>65</ele>
        <time>2020-04-07T14:07:38Z</time>
      </trkpt>
      <trkpt lat="43.33819" lon="-1.69062">
        <ele>66</ele>
        <time>2020-04-07T14:07:45Z</time>
      </trkpt>
      <trkpt lat="43.33836" lon="-1.69057">
        <ele>66</ele>
        <time>2020-04-07T14:07:48Z</time>
      </trkpt>
      <trkpt lat="43.33851" lon="-1.69056">
        <ele>65</ele>
        <time>2020-04-07T14:07:51Z</time>
      </trkpt>
      <trkpt lat="43.33869" lon="-1.69059">
        <ele>64</ele>
        <time>2020-04-07T14:07:54Z</time>
      </trkpt>
      <trkpt lat="43.33936" lon="-1.69081">
        <ele>61</ele>
        <time>2020-04-07T14:08:06Z</time>
      </trkpt>
      <trkpt lat="43.33982" lon="-1.69086">
        <ele>63</ele>
        <time>2020-04-07T14:08:15Z</time>
      </trkpt>
      <trkpt lat="43.34031" lon="-1.69088">
        <ele>62</ele>
        <time>2020-04-07T14:08:23Z</time>
      </trkpt>
      <trkpt lat="43.34049" lon="-1.69085">
        <ele>61</ele>
        <time>2020-04-07T14:08:27Z</time>
      </trkpt>
      <trkpt lat="43.3406" lon="-1.69084">
        <ele>60</ele>
        <time>2020-04-07T14:08:29Z</time>
      </trkpt>
      <trkpt lat="43.3411" lon="-1.69068">
        <ele>60</ele>
        <time>2020-04-07T14:08:38Z</time>
      </trkpt>
      <trkpt lat="43.3413" lon="-1.69063">
        <ele>58</ele>
        <time>2020-04-07T14:08:41Z</time>
      </trkpt>
      <trkpt lat="43.34152" lon="-1.69057">
        <ele>57</ele>
        <time>2020-04-07T14:08:45Z</time>
      </trkpt>
      <trkpt lat="43.34205" lon="-1.69048">
        <ele>52</ele>
        <time>2020-04-07T14:08:55Z</time>
      </trkpt>
      <trkpt lat="43.34262" lon="-1.69036">
        <ele>48</ele>
        <time>2020-04-07T14:09:05Z</time>
      </trkpt>
      <trkpt lat="43.34286" lon="-1.69031">
        <ele>48</ele>
        <time>2020-04-07T14:09:09Z</time>
      </trkpt>
      <trkpt lat="43.34479" lon="-1.68993">
        <ele>44</ele>
        <time>2020-04-07T14:09:44Z</time>
      </trkpt>
      <trkpt lat="43.34491" lon="-1.68991">
        <ele>44</ele>
        <time>2020-04-07T14:09:46Z</time>
      </trkpt>
      <trkpt lat="43.34517" lon="-1.6899">
        <ele>43</ele>
        <time>2020-04-07T14:09:51Z</time>
      </trkpt>
      <trkpt lat="43.34527" lon="-1.6899">
        <ele>43</ele>
        <time>2020-04-07T14:09:53Z</time>
      </trkpt>
      <trkpt lat="43.34565" lon="-1.68992">
        <ele>42</ele>
        <time>2020-04-07T14:09:59Z</time>
      </trkpt>
      <trkpt lat="43.34585" lon="-1.68988">
        <ele>42</ele>
        <time>2020-04-07T14:10:03Z</time>
      </trkpt>
      <trkpt lat="43.34638" lon="-1.68962">
        <ele>41</ele>
        <time>2020-04-07T14:10:13Z</time>
      </trkpt>
      <trkpt lat="43.34674" lon="-1.68928">
        <ele>40</ele>
        <time>2020-04-07T14:10:21Z</time>
      </trkpt>
      <trkpt lat="43.34705" lon="-1.68905">
        <ele>39</ele>
        <time>2020-04-07T14:10:27Z</time>
      </trkpt>
      <trkpt lat="43.34731" lon="-1.68889">
        <ele>38</ele>
        <time>2020-04-07T14:10:32Z</time>
      </trkpt>
      <trkpt lat="43.34744" lon="-1.68882">
        <ele>37</ele>
        <time>2020-04-07T14:10:35Z</time>
      </trkpt>
      <trkpt lat="43.34767" lon="-1.68873">
        <ele>37</ele>
        <time>2020-04-07T14:10:39Z</time>
      </trkpt>
      <trkpt lat="43.348" lon="-1.68865">
        <ele>36</ele>
        <time>2020-04-07T14:10:45Z</time>
      </trkpt>
      <trkpt lat="43.34834" lon="-1.68866">
        <ele>35</ele>
        <time>2020-04-07T14:10:51Z</time>
      </trkpt>
      <trkpt lat="43.34869" lon="-1.68869">
        <ele>35</ele>
        <time>2020-04-07T14:10:57Z</time>
      </trkpt>
      <trkpt lat="43.34875" lon="-1.68863">
        <ele>35</ele>
        <time>2020-04-07T14:10:58Z</time>
      </trkpt>
      <trkpt lat="43.34882" lon="-1.68861">
        <ele>35</ele>
        <time>2020-04-07T14:11:00Z</time>
      </trkpt>
      <trkpt lat="43.34884" lon="-1.68861">
        <ele>35</ele>
        <time>2020-04-07T14:11:00Z</time>
      </trkpt>
      <trkpt lat="43.34892" lon="-1.68862">
        <ele>35</ele>
        <time>2020-04-07T14:11:01Z</time>
      </trkpt>
      <trkpt lat="43.34899" lon="-1.68868">
        <ele>35</ele>
        <time>2020-04-07T14:11:03Z</time>
      </trkpt>
      <trkpt lat="43.34913" lon="-1.68867">
        <ele>34</ele>
        <time>2020-04-07T14:11:05Z</time>
      </trkpt>
      <trkpt lat="43.34932" lon="-1.68864">
        <ele>34</ele>
        <time>2020-04-07T14:11:09Z</time>
      </trkpt>
      <trkpt lat="43.34945" lon="-1.68861">
        <ele>34</ele>
        <time>2020-04-07T14:11:11Z</time>
      </trkpt>
      <trkpt lat="43.34976" lon="-1.68862">
        <ele>34</ele>
        <time>2020-04-07T14:11:17Z</time>
      </trkpt>
      <trkpt lat="43.34983" lon="-1.68863">
        <ele>34</ele>
        <time>2020-04-07T14:11:18Z</time>
      </trkpt>
      <trkpt lat="43.35027" lon="-1.68868">
        <ele>34</ele>
        <time>2020-04-07T14:11:26Z</time>
      </trkpt>
      <trkpt lat="43.35102" lon="-1.68886">
        <ele>34</ele>
        <time>2020-04-07T14:11:39Z</time>
      </trkpt>
      <trkpt lat="43.35201" lon="-1.68925">
        <ele>29</ele>
        <time>2020-04-07T14:11:58Z</time>
      </trkpt>
      <trkpt lat="43.35223" lon="-1.68936">
        <ele>29</ele>
        <time>2020-04-07T14:12:02Z</time>
      </trkpt>
      <trkpt lat="43.35255" lon="-1.68951">
        <ele>27</ele>
        <time>2020-04-07T14:12:08Z</time>
      </trkpt>
      <trkpt lat="43.35303" lon="-1.68977">
        <ele>26</ele>
        <time>2020-04-07T14:12:17Z</time>
      </trkpt>
      <trkpt lat="43.35308" lon="-1.6898">
        <ele>25</ele>
        <time>2020-04-07T14:12:18Z</time>
      </trkpt>
      <trkpt lat="43.35348" lon="-1.69005">
        <ele>24</ele>
        <time>2020-04-07T14:12:26Z</time>
      </trkpt>
      <trkpt lat="43.35373" lon="-1.6903">
        <ele>23</ele>
        <time>2020-04-07T14:12:31Z</time>
      </trkpt>
      <trkpt lat="43.35412" lon="-1.69062">
        <ele>21</ele>
        <time>2020-04-07T14:12:39Z</time>
      </trkpt>
      <trkpt lat="43.35429" lon="-1.69071">
        <ele>21</ele>
        <time>2020-04-07T14:12:43Z</time>
      </trkpt>
      <trkpt lat="43.35452" lon="-1.69074">
        <ele>21</ele>
        <time>2020-04-07T14:12:47Z</time>
      </trkpt>
      <trkpt lat="43.35506" lon="-1.69069">
        <ele>21</ele>
        <time>2020-04-07T14:12:56Z</time>
      </trkpt>
      <trkpt lat="43.35532" lon="-1.6907">
        <ele>21</ele>
        <time>2020-04-07T14:13:01Z</time>
      </trkpt>
      <trkpt lat="43.35554" lon="-1.69075">
        <ele>21</ele>
        <time>2020-04-07T14:13:05Z</time>
      </trkpt>
      <trkpt lat="43.35579" lon="-1.69083">
        <ele>22</ele>
        <time>2020-04-07T14:13:10Z</time>
      </trkpt>
      <trkpt lat="43.35638" lon="-1.69111">
        <ele>24</ele>
        <time>2020-04-07T14:13:21Z</time>
      </trkpt>
      <trkpt lat="43.35829" lon="-1.69206">
        <ele>20</ele>
        <time>2020-04-07T14:13:57Z</time>
      </trkpt>
      <trkpt lat="43.3585" lon="-1.69212">
        <ele>19</ele>
        <time>2020-04-07T14:14:01Z</time>
      </trkpt>
      <trkpt lat="43.35874" lon="-1.69217">
        <ele>18</ele>
        <time>2020-04-07T14:14:05Z</time>
      </trkpt>
      <trkpt lat="43.35965" lon="-1.69215">
        <ele>15</ele>
        <time>2020-04-07T14:14:21Z</time>
      </trkpt>
      <trkpt lat="43.35991" lon="-1.69217">
        <ele>14</ele>
        <time>2020-04-07T14:14:26Z</time>
      </trkpt>
      <trkpt lat="43.36011" lon="-1.69224">
        <ele>13</ele>
        <time>2020-04-07T14:14:29Z</time>
      </trkpt>
      <trkpt lat="43.36035" lon="-1.69236">
        <ele>13</ele>
        <time>2020-04-07T14:14:34Z</time>
      </trkpt>
      <trkpt lat="43.36043" lon="-1.69241">
        <ele>13</ele>
        <time>2020-04-07T14:14:36Z</time>
      </trkpt>
      <trkpt lat="43.36051" lon="-1.69244">
        <ele>13</ele>
        <time>2020-04-07T14:14:37Z</time>
      </trkpt>
      <trkpt lat="43.36074" lon="-1.6925">
        <ele>12</ele>
        <time>2020-04-07T14:14:41Z</time>
      </trkpt>
      <trkpt lat="43.36089" lon="-1.69251">
        <ele>12</ele>
        <time>2020-04-07T14:14:44Z</time>
      </trkpt>
      <trkpt lat="43.3612" lon="-1.69248">
        <ele>12</ele>
        <time>2020-04-07T14:14:49Z</time>
      </trkpt>
      <trkpt lat="43.36132" lon="-1.69244">
        <ele>12</ele>
        <time>2020-04-07T14:14:52Z</time>
      </trkpt>
      <trkpt lat="43.36148" lon="-1.69235">
        <ele>13</ele>
        <time>2020-04-07T14:14:55Z</time>
      </trkpt>
      <trkpt lat="43.36165" lon="-1.69219">
        <ele>13</ele>
        <time>2020-04-07T14:14:58Z</time>
      </trkpt>
      <trkpt lat="43.36177" lon="-1.69201">
        <ele>14</ele>
        <time>2020-04-07T14:15:01Z</time>
      </trkpt>
      <trkpt lat="43.36187" lon="-1.69185">
        <ele>15</ele>
        <time>2020-04-07T14:15:04Z</time>
      </trkpt>
      <trkpt lat="43.36203" lon="-1.69155">
        <ele>16</ele>
        <time>2020-04-07T14:15:09Z</time>
      </trkpt>
      <trkpt lat="43.36217" lon="-1.69136">
        <ele>16</ele>
        <time>2020-04-07T14:15:13Z</time>
      </trkpt>
      <trkpt lat="43.36228" lon="-1.6913">
        <ele>16</ele>
        <time>2020-04-07T14:15:15Z</time>
      </trkpt>
      <trkpt lat="43.36235" lon="-1.69129">
        <ele>16</ele>
        <time>2020-04-07T14:15:16Z</time>
      </trkpt>
      <trkpt lat="43.36242" lon="-1.69131">
        <ele>16</ele>
        <time>2020-04-07T14:15:17Z</time>
      </trkpt>
      <trkpt lat="43.36247" lon="-1.69134">
        <ele>16</ele>
        <time>2020-04-07T14:15:18Z</time>
      </trkpt>
      <trkpt lat="43.36253" lon="-1.69138">
        <ele>16</ele>
        <time>2020-04-07T14:15:19Z</time>
      </trkpt>
      <trkpt lat="43.36271" lon="-1.69162">
        <ele>15</ele>
        <time>2020-04-07T14:15:24Z</time>
      </trkpt>
      <trkpt lat="43.36282" lon="-1.69176">
        <ele>15</ele>
        <time>2020-04-07T14:15:26Z</time>
      </trkpt>
      <trkpt lat="43.36291" lon="-1.6918">
        <ele>15</ele>
        <time>2020-04-07T14:15:28Z</time>
      </trkpt>
      <trkpt lat="43.36296" lon="-1.69183">
        <ele>15</ele>
        <time>2020-04-07T14:15:29Z</time>
      </trkpt>
      <trkpt lat="43.36302" lon="-1.69186">
        <ele>15</ele>
        <time>2020-04-07T14:15:30Z</time>
      </trkpt>
      <trkpt lat="43.36308" lon="-1.69185">
        <ele>15</ele>
        <time>2020-04-07T14:15:31Z</time>
      </trkpt>
      <trkpt lat="43.36314" lon="-1.69188">
        <ele>16</ele>
        <time>2020-04-07T14:15:32Z</time>
      </trkpt>
      <trkpt lat="43.3632" lon="-1.69193">
        <ele>16</ele>
        <time>2020-04-07T14:15:34Z</time>
      </trkpt>
      <trkpt lat="43.36323" lon="-1.69199">
        <ele>16</ele>
        <time>2020-04-07T14:15:35Z</time>
      </trkpt>
      <trkpt lat="43.36326" lon="-1.69207">
        <ele>16</ele>
        <time>2020-04-07T14:15:36Z</time>
      </trkpt>
      <trkpt lat="43.36325" lon="-1.69221">
        <ele>16</ele>
        <time>2020-04-07T14:15:38Z</time>
      </trkpt>
      <trkpt lat="43.36337" lon="-1.69251">
        <ele>16</ele>
        <time>2020-04-07T14:15:42Z</time>
      </trkpt>
      <trkpt lat="43.36366" lon="-1.69156">
        <ele>18</ele>
        <time>2020-04-07T14:15:55Z</time>
      </trkpt>
      <trkpt lat="43.36397" lon="-1.69082">
        <ele>24</ele>
        <time>2020-04-07T14:16:06Z</time>
      </trkpt>
      <trkpt lat="43.36413" lon="-1.69049">
        <ele>25</ele>
        <time>2020-04-07T14:16:12Z</time>
      </trkpt>
      <trkpt lat="43.36445" lon="-1.68999">
        <ele>26</ele>
        <time>2020-04-07T14:16:20Z</time>
      </trkpt>
      <trkpt lat="43.36588" lon="-1.68792">
        <ele>18</ele>
        <time>2020-04-07T14:16:57Z</time>
      </trkpt>
      <trkpt lat="43.36658" lon="-1.68726">
        <ele>16</ele>
        <time>2020-04-07T14:17:12Z</time>
      </trkpt>
      <trkpt lat="43.36684" lon="-1.68711">
        <ele>16</ele>
        <time>2020-04-07T14:17:17Z</time>
      </trkpt>
      <trkpt lat="43.36754" lon="-1.68676">
        <ele>15</ele>
        <time>2020-04-07T14:17:30Z</time>
      </trkpt>
      <trkpt lat="43.36764" lon="-1.68668">
        <ele>15</ele>
        <time>2020-04-07T14:17:33Z</time>
      </trkpt>
      <trkpt lat="43.36791" lon="-1.6864">
        <ele>14</ele>
        <time>2020-04-07T14:17:39Z</time>
      </trkpt>
      <trkpt lat="43.36839" lon="-1.6858">
        <ele>14</ele>
        <time>2020-04-07T14:17:50Z</time>
      </trkpt>
      <trkpt lat="43.36875" lon="-1.6849">
        <ele>14</ele>
        <time>2020-04-07T14:18:03Z</time>
      </trkpt>
      <trkpt lat="43.36879" lon="-1.68482">
        <ele>14</ele>
        <time>2020-04-07T14:18:05Z</time>
      </trkpt>
      <trkpt lat="43.36887" lon="-1.68478">
        <ele>14</ele>
        <time>2020-04-07T14:18:06Z</time>
      </trkpt>
      <trkpt lat="43.36894" lon="-1.68457">
        <ele>14</ele>
        <time>2020-04-07T14:18:09Z</time>
      </trkpt>
      <trkpt lat="43.36893" lon="-1.68443">
        <ele>14</ele>
        <time>2020-04-07T14:18:11Z</time>
      </trkpt>
      <trkpt lat="43.36908" lon="-1.68391">
        <ele>13</ele>
        <time>2020-04-07T14:18:18Z</time>
      </trkpt>
      <trkpt lat="43.36926" lon="-1.68356">
        <ele>13</ele>
        <time>2020-04-07T14:18:24Z</time>
      </trkpt>
      <trkpt lat="43.36946" lon="-1.68332">
        <ele>12</ele>
        <time>2020-04-07T14:18:28Z</time>
      </trkpt>
      <trkpt lat="43.36992" lon="-1.68294">
        <ele>11</ele>
        <time>2020-04-07T14:18:38Z</time>
      </trkpt>
      <trkpt lat="43.37171" lon="-1.68165">
        <ele>22</ele>
        <time>2020-04-07T14:19:14Z</time>
      </trkpt>
      <trkpt lat="43.37205" lon="-1.68159">
        <ele>19</ele>
        <time>2020-04-07T14:19:20Z</time>
      </trkpt>
      <trkpt lat="43.37204" lon="-1.68151">
        <ele>20</ele>
        <time>2020-04-07T14:19:21Z</time>
      </trkpt>
      <trkpt lat="43.37198" lon="-1.6813">
        <ele>20</ele>
        <time>2020-04-07T14:19:24Z</time>
      </trkpt>
      <trkpt lat="43.37211" lon="-1.68118">
        <ele>20</ele>
        <time>2020-04-07T14:19:27Z</time>
      </trkpt>
      <trkpt lat="43.37229" lon="-1.68095">
        <ele>19</ele>
        <time>2020-04-07T14:19:31Z</time>
      </trkpt>
      <trkpt lat="43.37269" lon="-1.68057">
        <ele>18</ele>
        <time>2020-04-07T14:19:40Z</time>
      </trkpt>
      <trkpt lat="43.3728" lon="-1.68074">
        <ele>17</ele>
        <time>2020-04-07T14:19:43Z</time>
      </trkpt>
      <trkpt lat="43.37319" lon="-1.68032">
        <ele>18</ele>
        <time>2020-04-07T14:19:52Z</time>
      </trkpt>
      <trkpt lat="43.37341" lon="-1.68011">
        <ele>19</ele>
        <time>2020-04-07T14:19:56Z</time>
      </trkpt>
      <trkpt lat="43.37418" lon="-1.67939">
        <ele>22</ele>
        <time>2020-04-07T14:20:13Z</time>
      </trkpt>
      <trkpt lat="43.37451" lon="-1.67908">
        <ele>23</ele>
        <time>2020-04-07T14:20:20Z</time>
      </trkpt>
      <trkpt lat="43.37478" lon="-1.6788">
        <ele>24</ele>
        <time>2020-04-07T14:20:26Z</time>
      </trkpt>
      <trkpt lat="43.37494" lon="-1.67865">
        <ele>24</ele>
        <time>2020-04-07T14:20:29Z</time>
      </trkpt>
      <trkpt lat="43.37521" lon="-1.67829">
        <ele>25</ele>
        <time>2020-04-07T14:20:36Z</time>
      </trkpt>
      <trkpt lat="43.37528" lon="-1.67813">
        <ele>26</ele>
        <time>2020-04-07T14:20:39Z</time>
      </trkpt>
      <trkpt lat="43.3754" lon="-1.67798">
        <ele>27</ele>
        <time>2020-04-07T14:20:41Z</time>
      </trkpt>
      <trkpt lat="43.37534" lon="-1.6779">
        <ele>27</ele>
        <time>2020-04-07T14:20:43Z</time>
      </trkpt>
      <trkpt lat="43.37585" lon="-1.67721">
        <ele>30</ele>
        <time>2020-04-07T14:20:56Z</time>
      </trkpt>
      <trkpt lat="43.37598" lon="-1.67696">
        <ele>32</ele>
        <time>2020-04-07T14:21:00Z</time>
      </trkpt>
      <trkpt lat="43.37632" lon="-1.67568">
        <ele>30</ele>
        <time>2020-04-07T14:21:17Z</time>
      </trkpt>
      <trkpt lat="43.37751" lon="-1.67372">
        <ele>17</ele>
        <time>2020-04-07T14:21:50Z</time>
      </trkpt>
      <trkpt lat="43.37781" lon="-1.67275">
        <ele>14</ele>
        <time>2020-04-07T14:22:04Z</time>
      </trkpt>
      <trkpt lat="43.37823" lon="-1.67128">
        <ele>11</ele>
        <time>2020-04-07T14:22:24Z</time>
      </trkpt>
      <trkpt lat="43.37834" lon="-1.67101">
        <ele>8</ele>
        <time>2020-04-07T14:22:28Z</time>
      </trkpt>
      <trkpt lat="43.37857" lon="-1.67068">
        <ele>8</ele>
        <time>2020-04-07T14:22:34Z</time>
      </trkpt>
      <trkpt lat="43.37939" lon="-1.66965">
        <ele>9</ele>
        <time>2020-04-07T14:22:54Z</time>
      </trkpt>
      <trkpt lat="43.37965" lon="-1.66935">
        <ele>9</ele>
        <time>2020-04-07T14:23:00Z</time>
      </trkpt>
      <trkpt lat="43.38073" lon="-1.66843">
        <ele>9</ele>
        <time>2020-04-07T14:23:23Z</time>
      </trkpt>
      <trkpt lat="43.381" lon="-1.66817">
        <ele>9</ele>
        <time>2020-04-07T14:23:29Z</time>
      </trkpt>
      <trkpt lat="43.38133" lon="-1.66791">
        <ele>8</ele>
        <time>2020-04-07T14:23:35Z</time>
      </trkpt>
      <trkpt lat="43.3817" lon="-1.66769">
        <ele>7</ele>
        <time>2020-04-07T14:23:42Z</time>
      </trkpt>
      <trkpt lat="43.38188" lon="-1.66775">
        <ele>8</ele>
        <time>2020-04-07T14:23:46Z</time>
      </trkpt>
      <trkpt lat="43.38297" lon="-1.66762">
        <ele>8</ele>
        <time>2020-04-07T14:24:05Z</time>
      </trkpt>
      <trkpt lat="43.38345" lon="-1.66759">
        <ele>6</ele>
        <time>2020-04-07T14:24:14Z</time>
      </trkpt>
      <trkpt lat="43.38366" lon="-1.66755">
        <ele>6</ele>
        <time>2020-04-07T14:24:18Z</time>
      </trkpt>
      <trkpt lat="43.38378" lon="-1.66744">
        <ele>5</ele>
        <time>2020-04-07T14:24:20Z</time>
      </trkpt>
      <trkpt lat="43.38442" lon="-1.66658">
        <ele>5</ele>
        <time>2020-04-07T14:24:36Z</time>
      </trkpt>
      <trkpt lat="43.3843" lon="-1.66643">
        <ele>5</ele>
        <time>2020-04-07T14:24:39Z</time>
      </trkpt>
      <trkpt lat="43.38439" lon="-1.6663">
        <ele>4</ele>
        <time>2020-04-07T14:24:41Z</time>
      </trkpt>
      <trkpt lat="43.38433" lon="-1.66622">
        <ele>4</ele>
        <time>2020-04-07T14:24:43Z</time>
      </trkpt>
      <trkpt lat="43.38426" lon="-1.66612">
        <ele>4</ele>
        <time>2020-04-07T14:24:45Z</time>
      </trkpt>
      <trkpt lat="43.38412" lon="-1.66592">
        <ele>4</ele>
        <time>2020-04-07T14:24:48Z</time>
      </trkpt>
      <trkpt lat="43.38407" lon="-1.66569">
        <ele>4</ele>
        <time>2020-04-07T14:24:51Z</time>
      </trkpt>
      <trkpt lat="43.38407" lon="-1.66557">
        <ele>4</ele>
        <time>2020-04-07T14:24:53Z</time>
      </trkpt>
      <trkpt lat="43.38409" lon="-1.66552">
        <ele>4</ele>
        <time>2020-04-07T14:24:54Z</time>
      </trkpt>
    </trkseg>
  </trk>
</gpx>